<?xml version="1.0" encoding="UTF-8" standalone="no" ?>
<gpx xmlns="http://www.topografix.com/GPX/1/1" xmlns:xsi="http://www.w3.org/2001/XMLSchema-instance" xsi:schemaLocation="http://www.topografix.com/GPX/1/1 http://www.topografix.com/GPX/1/1/gpx.xsd" version="1.1" creator="VisuGPX - https://www.visugpx.com">
  <metadata>
    <name>Vetathlon Gassin (2011) - Partie VTT</name>
    <desc><![CDATA[La partie VTT du vétathlon de Gassin.]]></desc>
  </metadata>
  <trk>
    <name><![CDATA[Vetathlon-Gassin-MNT]]></name>
    <trkseg>
      <trkpt lat="43.24348" lon="6.56383">
        <ele>47.598171</ele>
        <time>2011-10-16T10:01:30Z</time>
      </trkpt>
      <trkpt lat="43.24376" lon="6.56363">
        <ele>50.614651</ele>
        <time>2011-10-16T10:01:42Z</time>
      </trkpt>
      <trkpt lat="43.24381" lon="6.56348">
        <ele>52.421833</ele>
        <time>2011-10-16T10:01:47Z</time>
      </trkpt>
      <trkpt lat="43.24385" lon="6.56338">
        <ele>53.574928</ele>
        <time>2011-10-16T10:01:51Z</time>
      </trkpt>
      <trkpt lat="43.24375" lon="6.56311">
        <ele>56.826111</ele>
        <time>2011-10-16T10:02:04Z</time>
      </trkpt>
      <trkpt lat="43.2437" lon="6.56305">
        <ele>57.57497</ele>
        <time>2011-10-16T10:02:08Z</time>
      </trkpt>
      <trkpt lat="43.24354" lon="6.56289">
        <ele>59.64175</ele>
        <time>2011-10-16T10:02:18Z</time>
      </trkpt>
      <trkpt lat="43.24353" lon="6.56288">
        <ele>59.868389</ele>
        <time>2011-10-16T10:02:19Z</time>
      </trkpt>
      <trkpt lat="43.24332" lon="6.56252">
        <ele>64.084412</ele>
        <time>2011-10-16T10:02:32Z</time>
      </trkpt>
      <trkpt lat="43.24331" lon="6.56236">
        <ele>66.129074</ele>
        <time>2011-10-16T10:02:37Z</time>
      </trkpt>
      <trkpt lat="43.24332" lon="6.56223">
        <ele>67.271248</ele>
        <time>2011-10-16T10:02:41Z</time>
      </trkpt>
      <trkpt lat="43.24337" lon="6.56185">
        <ele>70.262497</ele>
        <time>2011-10-16T10:02:53Z</time>
      </trkpt>
      <trkpt lat="43.24352" lon="6.5613">
        <ele>71.78125</ele>
        <time>2011-10-16T10:03:06Z</time>
      </trkpt>
      <trkpt lat="43.24359" lon="6.56114">
        <ele>71.899139</ele>
        <time>2011-10-16T10:03:10Z</time>
      </trkpt>
      <trkpt lat="43.2437" lon="6.56108">
        <ele>71.646835</ele>
        <time>2011-10-16T10:03:13Z</time>
      </trkpt>
      <trkpt lat="43.24379" lon="6.56105">
        <ele>71.437088</ele>
        <time>2011-10-16T10:03:15Z</time>
      </trkpt>
      <trkpt lat="43.24393" lon="6.56099">
        <ele>71.141312</ele>
        <time>2011-10-16T10:03:18Z</time>
      </trkpt>
      <trkpt lat="43.24409" lon="6.56087">
        <ele>70.9916</ele>
        <time>2011-10-16T10:03:21Z</time>
      </trkpt>
      <trkpt lat="43.24426" lon="6.56065">
        <ele>71.348747</ele>
        <time>2011-10-16T10:03:25Z</time>
      </trkpt>
      <trkpt lat="43.24443" lon="6.5605">
        <ele>71.852081</ele>
        <time>2011-10-16T10:03:29Z</time>
      </trkpt>
      <trkpt lat="43.24471" lon="6.56044">
        <ele>73.824203</ele>
        <time>2011-10-16T10:03:35Z</time>
      </trkpt>
      <trkpt lat="43.24527" lon="6.56062">
        <ele>78.973351</ele>
        <time>2011-10-16T10:03:49Z</time>
      </trkpt>
      <trkpt lat="43.24559" lon="6.56089">
        <ele>80.081436</ele>
        <time>2011-10-16T10:04:00Z</time>
      </trkpt>
      <trkpt lat="43.24569" lon="6.56102">
        <ele>80.393661</ele>
        <time>2011-10-16T10:04:03Z</time>
      </trkpt>
      <trkpt lat="43.24593" lon="6.56129">
        <ele>81.271141</ele>
        <time>2011-10-16T10:04:09Z</time>
      </trkpt>
      <trkpt lat="43.24606" lon="6.56137">
        <ele>81.364685</ele>
        <time>2011-10-16T10:04:12Z</time>
      </trkpt>
      <trkpt lat="43.24643" lon="6.56162">
        <ele>81.72094</ele>
        <time>2011-10-16T10:04:25Z</time>
      </trkpt>
      <trkpt lat="43.24661" lon="6.56169">
        <ele>81.903099</ele>
        <time>2011-10-16T10:04:31Z</time>
      </trkpt>
      <trkpt lat="43.2471" lon="6.56204">
        <ele>79.856598</ele>
        <time>2011-10-16T10:04:39Z</time>
      </trkpt>
      <trkpt lat="43.24727" lon="6.56204">
        <ele>80.117889</ele>
        <time>2011-10-16T10:04:41Z</time>
      </trkpt>
      <trkpt lat="43.2475" lon="6.56198">
        <ele>80.692421</ele>
        <time>2011-10-16T10:04:44Z</time>
      </trkpt>
      <trkpt lat="43.24776" lon="6.56197">
        <ele>81.668686</ele>
        <time>2011-10-16T10:04:48Z</time>
      </trkpt>
      <trkpt lat="43.248" lon="6.56194">
        <ele>82.844002</ele>
        <time>2011-10-16T10:04:52Z</time>
      </trkpt>
      <trkpt lat="43.24834" lon="6.562">
        <ele>82.812653</ele>
        <time>2011-10-16T10:04:58Z</time>
      </trkpt>
      <trkpt lat="43.2485" lon="6.56209">
        <ele>82.997185</ele>
        <time>2011-10-16T10:05:01Z</time>
      </trkpt>
      <trkpt lat="43.2486" lon="6.56216">
        <ele>82.988205</ele>
        <time>2011-10-16T10:05:03Z</time>
      </trkpt>
      <trkpt lat="43.24878" lon="6.56235">
        <ele>83.421974</ele>
        <time>2011-10-16T10:05:07Z</time>
      </trkpt>
      <trkpt lat="43.24897" lon="6.56249">
        <ele>84.501854</ele>
        <time>2011-10-16T10:05:11Z</time>
      </trkpt>
      <trkpt lat="43.24922" lon="6.56274">
        <ele>87.030472</ele>
        <time>2011-10-16T10:05:18Z</time>
      </trkpt>
      <trkpt lat="43.2494" lon="6.56317">
        <ele>87.817497</ele>
        <time>2011-10-16T10:05:27Z</time>
      </trkpt>
      <trkpt lat="43.24944" lon="6.56328">
        <ele>87.963753</ele>
        <time>2011-10-16T10:05:29Z</time>
      </trkpt>
      <trkpt lat="43.2495" lon="6.56338">
        <ele>88.188751</ele>
        <time>2011-10-16T10:05:31Z</time>
      </trkpt>
      <trkpt lat="43.24982" lon="6.56375">
        <ele>87.559433</ele>
        <time>2011-10-16T10:05:41Z</time>
      </trkpt>
      <trkpt lat="43.24994" lon="6.56387">
        <ele>87.297249</ele>
        <time>2011-10-16T10:05:44Z</time>
      </trkpt>
      <trkpt lat="43.25004" lon="6.56395">
        <ele>87.391487</ele>
        <time>2011-10-16T10:05:46Z</time>
      </trkpt>
      <trkpt lat="43.25031" lon="6.56389">
        <ele>88.767113</ele>
        <time>2011-10-16T10:05:53Z</time>
      </trkpt>
      <trkpt lat="43.25033" lon="6.56379">
        <ele>89.081947</ele>
        <time>2011-10-16T10:05:55Z</time>
      </trkpt>
      <trkpt lat="43.25037" lon="6.56362">
        <ele>89.591003</ele>
        <time>2011-10-16T10:05:58Z</time>
      </trkpt>
      <trkpt lat="43.25039" lon="6.56341">
        <ele>89.593811</ele>
        <time>2011-10-16T10:06:01Z</time>
      </trkpt>
      <trkpt lat="43.25045" lon="6.56315">
        <ele>87.171753</ele>
        <time>2011-10-16T10:06:04Z</time>
      </trkpt>
      <trkpt lat="43.25049" lon="6.56266">
        <ele>82.107407</ele>
        <time>2011-10-16T10:06:08Z</time>
      </trkpt>
      <trkpt lat="43.25053" lon="6.56229">
        <ele>77.294235</ele>
        <time>2011-10-16T10:06:11Z</time>
      </trkpt>
      <trkpt lat="43.25032" lon="6.56164">
        <ele>72.985603</ele>
        <time>2011-10-16T10:06:18Z</time>
      </trkpt>
      <trkpt lat="43.24967" lon="6.56094">
        <ele>63.389999</ele>
        <time>2011-10-16T10:06:27Z</time>
      </trkpt>
      <trkpt lat="43.24935" lon="6.56051">
        <ele>57.250828</ele>
        <time>2011-10-16T10:06:34Z</time>
      </trkpt>
      <trkpt lat="43.24906" lon="6.5604">
        <ele>56.653538</ele>
        <time>2011-10-16T10:06:41Z</time>
      </trkpt>
      <trkpt lat="43.249" lon="6.56029">
        <ele>55.129898</ele>
        <time>2011-10-16T10:06:43Z</time>
      </trkpt>
      <trkpt lat="43.24866" lon="6.55992">
        <ele>53.542061</ele>
        <time>2011-10-16T10:06:52Z</time>
      </trkpt>
      <trkpt lat="43.24844" lon="6.55987">
        <ele>54.156757</ele>
        <time>2011-10-16T10:06:56Z</time>
      </trkpt>
      <trkpt lat="43.24814" lon="6.55967">
        <ele>53.679649</ele>
        <time>2011-10-16T10:07:04Z</time>
      </trkpt>
      <trkpt lat="43.24813" lon="6.55961">
        <ele>53.050312</ele>
        <time>2011-10-16T10:07:05Z</time>
      </trkpt>
      <trkpt lat="43.24812" lon="6.55949">
        <ele>51.9575</ele>
        <time>2011-10-16T10:07:07Z</time>
      </trkpt>
      <trkpt lat="43.24805" lon="6.55913">
        <ele>49.602501</ele>
        <time>2011-10-16T10:07:12Z</time>
      </trkpt>
      <trkpt lat="43.24806" lon="6.55882">
        <ele>46.672905</ele>
        <time>2011-10-16T10:07:17Z</time>
      </trkpt>
      <trkpt lat="43.24797" lon="6.55834">
        <ele>43.025002</ele>
        <time>2011-10-16T10:07:25Z</time>
      </trkpt>
      <trkpt lat="43.2479" lon="6.55789">
        <ele>39.634998</ele>
        <time>2011-10-16T10:07:32Z</time>
      </trkpt>
      <trkpt lat="43.24781" lon="6.5579">
        <ele>40.84</ele>
        <time>2011-10-16T10:07:35Z</time>
      </trkpt>
      <trkpt lat="43.24752" lon="6.55795">
        <ele>43.639301</ele>
        <time>2011-10-16T10:07:44Z</time>
      </trkpt>
      <trkpt lat="43.24736" lon="6.55789">
        <ele>44.063843</ele>
        <time>2011-10-16T10:07:51Z</time>
      </trkpt>
      <trkpt lat="43.24714" lon="6.55796">
        <ele>45.423424</ele>
        <time>2011-10-16T10:08:01Z</time>
      </trkpt>
      <trkpt lat="43.247" lon="6.55798">
        <ele>45.68375</ele>
        <time>2011-10-16T10:08:07Z</time>
      </trkpt>
      <trkpt lat="43.24677" lon="6.5581">
        <ele>47.064178</ele>
        <time>2011-10-16T10:08:18Z</time>
      </trkpt>
      <trkpt lat="43.24676" lon="6.55812">
        <ele>47.252075</ele>
        <time>2011-10-16T10:08:19Z</time>
      </trkpt>
      <trkpt lat="43.24665" lon="6.55841">
        <ele>50.990002</ele>
        <time>2011-10-16T10:08:29Z</time>
      </trkpt>
      <trkpt lat="43.24663" lon="6.55853">
        <ele>52.688751</ele>
        <time>2011-10-16T10:08:32Z</time>
      </trkpt>
      <trkpt lat="43.24645" lon="6.55867">
        <ele>53.6675</ele>
        <time>2011-10-16T10:08:38Z</time>
      </trkpt>
      <trkpt lat="43.24586" lon="6.55866">
        <ele>54.51757</ele>
        <time>2011-10-16T10:08:53Z</time>
      </trkpt>
      <trkpt lat="43.2458" lon="6.55867">
        <ele>54.883133</ele>
        <time>2011-10-16T10:08:55Z</time>
      </trkpt>
      <trkpt lat="43.24568" lon="6.55867">
        <ele>55.478626</ele>
        <time>2011-10-16T10:08:59Z</time>
      </trkpt>
      <trkpt lat="43.24547" lon="6.55872">
        <ele>56.998936</ele>
        <time>2011-10-16T10:09:04Z</time>
      </trkpt>
      <trkpt lat="43.24529" lon="6.55856">
        <ele>55.552502</ele>
        <time>2011-10-16T10:09:11Z</time>
      </trkpt>
      <trkpt lat="43.24526" lon="6.55853">
        <ele>55.264999</ele>
        <time>2011-10-16T10:09:12Z</time>
      </trkpt>
      <trkpt lat="43.24506" lon="6.55847">
        <ele>55.075001</ele>
        <time>2011-10-16T10:09:17Z</time>
      </trkpt>
      <trkpt lat="43.24497" lon="6.5585">
        <ele>55.610001</ele>
        <time>2011-10-16T10:09:20Z</time>
      </trkpt>
      <trkpt lat="43.24485" lon="6.55838">
        <ele>54.18</ele>
        <time>2011-10-16T10:09:27Z</time>
      </trkpt>
      <trkpt lat="43.24465" lon="6.55841">
        <ele>54.77</ele>
        <time>2011-10-16T10:09:35Z</time>
      </trkpt>
      <trkpt lat="43.2446" lon="6.55842">
        <ele>54.98</ele>
        <time>2011-10-16T10:09:37Z</time>
      </trkpt>
      <trkpt lat="43.24441" lon="6.55844">
        <ele>55.338089</ele>
        <time>2011-10-16T10:09:45Z</time>
      </trkpt>
      <trkpt lat="43.24432" lon="6.55836">
        <ele>54.578907</ele>
        <time>2011-10-16T10:09:52Z</time>
      </trkpt>
      <trkpt lat="43.24436" lon="6.5583">
        <ele>53.750401</ele>
        <time>2011-10-16T10:09:54Z</time>
      </trkpt>
      <trkpt lat="43.24448" lon="6.55817">
        <ele>52.027187</ele>
        <time>2011-10-16T10:09:58Z</time>
      </trkpt>
      <trkpt lat="43.24453" lon="6.55809">
        <ele>50.918636</ele>
        <time>2011-10-16T10:10:00Z</time>
      </trkpt>
      <trkpt lat="43.24469" lon="6.55795">
        <ele>49.275002</ele>
        <time>2011-10-16T10:10:05Z</time>
      </trkpt>
      <trkpt lat="43.24494" lon="6.55779">
        <ele>47.572498</ele>
        <time>2011-10-16T10:10:11Z</time>
      </trkpt>
      <trkpt lat="43.24531" lon="6.55759">
        <ele>45.32505</ele>
        <time>2011-10-16T10:10:18Z</time>
      </trkpt>
      <trkpt lat="43.24548" lon="6.55746">
        <ele>44.652031</ele>
        <time>2011-10-16T10:10:21Z</time>
      </trkpt>
      <trkpt lat="43.24596" lon="6.55718">
        <ele>44.658932</ele>
        <time>2011-10-16T10:10:29Z</time>
      </trkpt>
      <trkpt lat="43.24626" lon="6.557">
        <ele>41.799599</ele>
        <time>2011-10-16T10:10:34Z</time>
      </trkpt>
      <trkpt lat="43.24641" lon="6.55685">
        <ele>39.354</ele>
        <time>2011-10-16T10:10:38Z</time>
      </trkpt>
      <trkpt lat="43.24656" lon="6.55672">
        <ele>36.62875</ele>
        <time>2011-10-16T10:10:41Z</time>
      </trkpt>
      <trkpt lat="43.2468" lon="6.55629">
        <ele>30.299732</ele>
        <time>2011-10-16T10:10:47Z</time>
      </trkpt>
      <trkpt lat="43.24707" lon="6.5559">
        <ele>24.141712</ele>
        <time>2011-10-16T10:10:52Z</time>
      </trkpt>
      <trkpt lat="43.24717" lon="6.55559">
        <ele>21.677938</ele>
        <time>2011-10-16T10:10:58Z</time>
      </trkpt>
      <trkpt lat="43.24743" lon="6.55529">
        <ele>19.88625</ele>
        <time>2011-10-16T10:11:03Z</time>
      </trkpt>
      <trkpt lat="43.24792" lon="6.55499">
        <ele>17.465132</ele>
        <time>2011-10-16T10:11:11Z</time>
      </trkpt>
      <trkpt lat="43.24815" lon="6.55471">
        <ele>16.448484</ele>
        <time>2011-10-16T10:11:15Z</time>
      </trkpt>
      <trkpt lat="43.24829" lon="6.55435">
        <ele>14.460938</ele>
        <time>2011-10-16T10:11:19Z</time>
      </trkpt>
      <trkpt lat="43.24839" lon="6.55402">
        <ele>12.579187</ele>
        <time>2011-10-16T10:11:25Z</time>
      </trkpt>
      <trkpt lat="43.24825" lon="6.55379">
        <ele>12.5</ele>
        <time>2011-10-16T10:11:29Z</time>
      </trkpt>
      <trkpt lat="43.24783" lon="6.55299">
        <ele>10.75711</ele>
        <time>2011-10-16T10:11:40Z</time>
      </trkpt>
      <trkpt lat="43.24738" lon="6.55264">
        <ele>12.636684</ele>
        <time>2011-10-16T10:11:48Z</time>
      </trkpt>
      <trkpt lat="43.24728" lon="6.55253">
        <ele>13.234537</ele>
        <time>2011-10-16T10:11:50Z</time>
      </trkpt>
      <trkpt lat="43.24707" lon="6.55228">
        <ele>13.23195</ele>
        <time>2011-10-16T10:11:54Z</time>
      </trkpt>
      <trkpt lat="43.24681" lon="6.55196">
        <ele>13.4747</ele>
        <time>2011-10-16T10:11:59Z</time>
      </trkpt>
      <trkpt lat="43.2463" lon="6.55156">
        <ele>14.01815</ele>
        <time>2011-10-16T10:12:08Z</time>
      </trkpt>
      <trkpt lat="43.24624" lon="6.55153">
        <ele>14.091866</ele>
        <time>2011-10-16T10:12:09Z</time>
      </trkpt>
      <trkpt lat="43.24601" lon="6.55138">
        <ele>14.2975</ele>
        <time>2011-10-16T10:12:13Z</time>
      </trkpt>
      <trkpt lat="43.24582" lon="6.55121">
        <ele>14.495</ele>
        <time>2011-10-16T10:12:17Z</time>
      </trkpt>
      <trkpt lat="43.24551" lon="6.55112">
        <ele>15.07625</ele>
        <time>2011-10-16T10:12:24Z</time>
      </trkpt>
      <trkpt lat="43.24545" lon="6.55118">
        <ele>15.31625</ele>
        <time>2011-10-16T10:12:26Z</time>
      </trkpt>
      <trkpt lat="43.24541" lon="6.5514">
        <ele>15.7425</ele>
        <time>2011-10-16T10:12:30Z</time>
      </trkpt>
      <trkpt lat="43.24536" lon="6.55175">
        <ele>17.062557</ele>
        <time>2011-10-16T10:12:36Z</time>
      </trkpt>
      <trkpt lat="43.24539" lon="6.55216">
        <ele>18.740402</ele>
        <time>2011-10-16T10:12:43Z</time>
      </trkpt>
      <trkpt lat="43.24544" lon="6.55259">
        <ele>21.170773</ele>
        <time>2011-10-16T10:12:55Z</time>
      </trkpt>
      <trkpt lat="43.24546" lon="6.55266">
        <ele>21.659956</ele>
        <time>2011-10-16T10:12:58Z</time>
      </trkpt>
      <trkpt lat="43.24555" lon="6.55278">
        <ele>22.598</ele>
        <time>2011-10-16T10:13:04Z</time>
      </trkpt>
      <trkpt lat="43.24558" lon="6.55287">
        <ele>23.293812</ele>
        <time>2011-10-16T10:13:08Z</time>
      </trkpt>
      <trkpt lat="43.24549" lon="6.55332">
        <ele>26.273487</ele>
        <time>2011-10-16T10:13:22Z</time>
      </trkpt>
      <trkpt lat="43.24543" lon="6.55358">
        <ele>27.595688</ele>
        <time>2011-10-16T10:13:29Z</time>
      </trkpt>
      <trkpt lat="43.24529" lon="6.554">
        <ele>30.008425</ele>
        <time>2011-10-16T10:13:43Z</time>
      </trkpt>
      <trkpt lat="43.24528" lon="6.55403">
        <ele>30.124538</ele>
        <time>2011-10-16T10:13:44Z</time>
      </trkpt>
      <trkpt lat="43.24499" lon="6.55437">
        <ele>32.935936</ele>
        <time>2011-10-16T10:13:57Z</time>
      </trkpt>
      <trkpt lat="43.2448" lon="6.55477">
        <ele>36.390469</ele>
        <time>2011-10-16T10:14:11Z</time>
      </trkpt>
      <trkpt lat="43.24461" lon="6.55505">
        <ele>40.080601</ele>
        <time>2011-10-16T10:14:23Z</time>
      </trkpt>
      <trkpt lat="43.2445" lon="6.5553">
        <ele>42.813911</ele>
        <time>2011-10-16T10:14:33Z</time>
      </trkpt>
      <trkpt lat="43.24442" lon="6.55563">
        <ele>45.903873</ele>
        <time>2011-10-16T10:14:45Z</time>
      </trkpt>
      <trkpt lat="43.24432" lon="6.55597">
        <ele>47.830444</ele>
        <time>2011-10-16T10:14:58Z</time>
      </trkpt>
      <trkpt lat="43.24433" lon="6.55635">
        <ele>47.646599</ele>
        <time>2011-10-16T10:15:10Z</time>
      </trkpt>
      <trkpt lat="43.24429" lon="6.5566">
        <ele>47.7505</ele>
        <time>2011-10-16T10:15:20Z</time>
      </trkpt>
      <trkpt lat="43.24424" lon="6.55665">
        <ele>48.472034</ele>
        <time>2011-10-16T10:15:24Z</time>
      </trkpt>
      <trkpt lat="43.24406" lon="6.55695">
        <ele>51.384438</ele>
        <time>2011-10-16T10:15:37Z</time>
      </trkpt>
      <trkpt lat="43.24373" lon="6.55721">
        <ele>57.142258</ele>
        <time>2011-10-16T10:15:49Z</time>
      </trkpt>
      <trkpt lat="43.24343" lon="6.55749">
        <ele>61.73</ele>
        <time>2011-10-16T10:16:01Z</time>
      </trkpt>
      <trkpt lat="43.24317" lon="6.55786">
        <ele>63.713749</ele>
        <time>2011-10-16T10:16:14Z</time>
      </trkpt>
      <trkpt lat="43.24288" lon="6.55822">
        <ele>66.151466</ele>
        <time>2011-10-16T10:16:25Z</time>
      </trkpt>
      <trkpt lat="43.24285" lon="6.55858">
        <ele>65.459221</ele>
        <time>2011-10-16T10:16:32Z</time>
      </trkpt>
      <trkpt lat="43.24288" lon="6.55863">
        <ele>65.373535</ele>
        <time>2011-10-16T10:16:33Z</time>
      </trkpt>
      <trkpt lat="43.24299" lon="6.55886">
        <ele>66.223686</ele>
        <time>2011-10-16T10:16:37Z</time>
      </trkpt>
      <trkpt lat="43.24312" lon="6.55907">
        <ele>67.005371</ele>
        <time>2011-10-16T10:16:41Z</time>
      </trkpt>
      <trkpt lat="43.24323" lon="6.55927">
        <ele>67.868752</ele>
        <time>2011-10-16T10:16:45Z</time>
      </trkpt>
      <trkpt lat="43.2433" lon="6.55944">
        <ele>68.09375</ele>
        <time>2011-10-16T10:16:48Z</time>
      </trkpt>
      <trkpt lat="43.24343" lon="6.55965">
        <ele>68.1875</ele>
        <time>2011-10-16T10:16:52Z</time>
      </trkpt>
      <trkpt lat="43.24352" lon="6.55989">
        <ele>68.616249</ele>
        <time>2011-10-16T10:16:56Z</time>
      </trkpt>
      <trkpt lat="43.24352" lon="6.56047">
        <ele>71.036674</ele>
        <time>2011-10-16T10:17:07Z</time>
      </trkpt>
      <trkpt lat="43.24346" lon="6.56087">
        <ele>71.875</ele>
        <time>2011-10-16T10:17:16Z</time>
      </trkpt>
      <trkpt lat="43.24342" lon="6.56094">
        <ele>72.072502</ele>
        <time>2011-10-16T10:17:18Z</time>
      </trkpt>
      <trkpt lat="43.24328" lon="6.56099">
        <ele>72.464996</ele>
        <time>2011-10-16T10:17:22Z</time>
      </trkpt>
      <trkpt lat="43.24279" lon="6.56095">
        <ele>73.803749</ele>
        <time>2011-10-16T10:17:35Z</time>
      </trkpt>
      <trkpt lat="43.24273" lon="6.56093">
        <ele>74.032631</ele>
        <time>2011-10-16T10:17:37Z</time>
      </trkpt>
      <trkpt lat="43.24258" lon="6.56127">
        <ele>73.693146</ele>
        <time>2011-10-16T10:17:44Z</time>
      </trkpt>
      <trkpt lat="43.24251" lon="6.56151">
        <ele>72.917496</ele>
        <time>2011-10-16T10:17:47Z</time>
      </trkpt>
      <trkpt lat="43.2423" lon="6.56185">
        <ele>70.800537</ele>
        <time>2011-10-16T10:17:54Z</time>
      </trkpt>
      <trkpt lat="43.2422" lon="6.5621">
        <ele>68.429802</ele>
        <time>2011-10-16T10:17:58Z</time>
      </trkpt>
      <trkpt lat="43.24214" lon="6.5622">
        <ele>67.689247</ele>
        <time>2011-10-16T10:18:00Z</time>
      </trkpt>
      <trkpt lat="43.24207" lon="6.56247">
        <ele>65.25222</ele>
        <time>2011-10-16T10:18:05Z</time>
      </trkpt>
      <trkpt lat="43.24189" lon="6.5628">
        <ele>62.00452</ele>
        <time>2011-10-16T10:18:11Z</time>
      </trkpt>
      <trkpt lat="43.24162" lon="6.563">
        <ele>60.026386</ele>
        <time>2011-10-16T10:18:16Z</time>
      </trkpt>
      <trkpt lat="43.24136" lon="6.56319">
        <ele>57.879425</ele>
        <time>2011-10-16T10:18:20Z</time>
      </trkpt>
      <trkpt lat="43.24123" lon="6.56325">
        <ele>56.978764</ele>
        <time>2011-10-16T10:18:22Z</time>
      </trkpt>
      <trkpt lat="43.24115" lon="6.56369">
        <ele>52.397499</ele>
        <time>2011-10-16T10:18:28Z</time>
      </trkpt>
      <trkpt lat="43.24116" lon="6.56379">
        <ele>51.591251</ele>
        <time>2011-10-16T10:18:29Z</time>
      </trkpt>
      <trkpt lat="43.24116" lon="6.564">
        <ele>49.918751</ele>
        <time>2011-10-16T10:18:31Z</time>
      </trkpt>
      <trkpt lat="43.24102" lon="6.56434">
        <ele>47.417084</ele>
        <time>2011-10-16T10:18:37Z</time>
      </trkpt>
      <trkpt lat="43.24099" lon="6.56442">
        <ele>46.8419</ele>
        <time>2011-10-16T10:18:39Z</time>
      </trkpt>
      <trkpt lat="43.24083" lon="6.56458">
        <ele>44.842831</ele>
        <time>2011-10-16T10:18:45Z</time>
      </trkpt>
      <trkpt lat="43.24061" lon="6.56467">
        <ele>41.525902</ele>
        <time>2011-10-16T10:18:51Z</time>
      </trkpt>
      <trkpt lat="43.24063" lon="6.5648">
        <ele>40.170933</ele>
        <time>2011-10-16T10:18:54Z</time>
      </trkpt>
      <trkpt lat="43.24071" lon="6.56499">
        <ele>38.799599</ele>
        <time>2011-10-16T10:18:57Z</time>
      </trkpt>
      <trkpt lat="43.24069" lon="6.56518">
        <ele>36.255005</ele>
        <time>2011-10-16T10:19:01Z</time>
      </trkpt>
      <trkpt lat="43.24067" lon="6.56538">
        <ele>34.041172</ele>
        <time>2011-10-16T10:19:05Z</time>
      </trkpt>
      <trkpt lat="43.24045" lon="6.56564">
        <ele>29.416313</ele>
        <time>2011-10-16T10:19:11Z</time>
      </trkpt>
      <trkpt lat="43.24041" lon="6.56583">
        <ele>27.448799</ele>
        <time>2011-10-16T10:19:13Z</time>
      </trkpt>
      <trkpt lat="43.24035" lon="6.5666">
        <ele>23.450001</ele>
        <time>2011-10-16T10:19:20Z</time>
      </trkpt>
      <trkpt lat="43.24048" lon="6.56722">
        <ele>20.302626</ele>
        <time>2011-10-16T10:19:27Z</time>
      </trkpt>
      <trkpt lat="43.24056" lon="6.56719">
        <ele>20.847063</ele>
        <time>2011-10-16T10:19:29Z</time>
      </trkpt>
      <trkpt lat="43.24081" lon="6.56697">
        <ele>23.048231</ele>
        <time>2011-10-16T10:19:36Z</time>
      </trkpt>
      <trkpt lat="43.24091" lon="6.5669">
        <ele>23.889275</ele>
        <time>2011-10-16T10:19:39Z</time>
      </trkpt>
      <trkpt lat="43.24121" lon="6.56698">
        <ele>24.209999</ele>
        <time>2011-10-16T10:19:47Z</time>
      </trkpt>
      <trkpt lat="43.24136" lon="6.56706">
        <ele>24.016251</ele>
        <time>2011-10-16T10:19:50Z</time>
      </trkpt>
      <trkpt lat="43.24156" lon="6.56701">
        <ele>24.881237</ele>
        <time>2011-10-16T10:19:57Z</time>
      </trkpt>
      <trkpt lat="43.24163" lon="6.56699">
        <ele>25.09514</ele>
        <time>2011-10-16T10:19:59Z</time>
      </trkpt>
      <trkpt lat="43.24169" lon="6.56696">
        <ele>25.325251</ele>
        <time>2011-10-16T10:20:01Z</time>
      </trkpt>
      <trkpt lat="43.24202" lon="6.5671">
        <ele>24.262457</ele>
        <time>2011-10-16T10:20:08Z</time>
      </trkpt>
      <trkpt lat="43.24213" lon="6.56727">
        <ele>23.2925</ele>
        <time>2011-10-16T10:20:12Z</time>
      </trkpt>
      <trkpt lat="43.24229" lon="6.56755">
        <ele>22.0625</ele>
        <time>2011-10-16T10:20:17Z</time>
      </trkpt>
      <trkpt lat="43.24256" lon="6.56789">
        <ele>20.18125</ele>
        <time>2011-10-16T10:20:26Z</time>
      </trkpt>
      <trkpt lat="43.24263" lon="6.56801">
        <ele>19.788322</ele>
        <time>2011-10-16T10:20:31Z</time>
      </trkpt>
      <trkpt lat="43.24257" lon="6.56817">
        <ele>19.832163</ele>
        <time>2011-10-16T10:20:34Z</time>
      </trkpt>
      <trkpt lat="43.24236" lon="6.56843">
        <ele>19.951063</ele>
        <time>2011-10-16T10:20:42Z</time>
      </trkpt>
      <trkpt lat="43.24237" lon="6.5686">
        <ele>19.410463</ele>
        <time>2011-10-16T10:20:46Z</time>
      </trkpt>
      <trkpt lat="43.24249" lon="6.56892">
        <ele>18.330524</ele>
        <time>2011-10-16T10:20:53Z</time>
      </trkpt>
      <trkpt lat="43.24255" lon="6.56899">
        <ele>18.122652</ele>
        <time>2011-10-16T10:20:55Z</time>
      </trkpt>
      <trkpt lat="43.24268" lon="6.56908">
        <ele>17.9575</ele>
        <time>2011-10-16T10:20:58Z</time>
      </trkpt>
      <trkpt lat="43.24278" lon="6.56913">
        <ele>17.887501</ele>
        <time>2011-10-16T10:21:00Z</time>
      </trkpt>
      <trkpt lat="43.243" lon="6.56922">
        <ele>17.875031</ele>
        <time>2011-10-16T10:21:04Z</time>
      </trkpt>
      <trkpt lat="43.2434" lon="6.56945">
        <ele>18.15864</ele>
        <time>2011-10-16T10:21:10Z</time>
      </trkpt>
      <trkpt lat="43.24368" lon="6.5695">
        <ele>18.388088</ele>
        <time>2011-10-16T10:21:15Z</time>
      </trkpt>
      <trkpt lat="43.2437" lon="6.56933">
        <ele>18.699249</ele>
        <time>2011-10-16T10:21:19Z</time>
      </trkpt>
      <trkpt lat="43.24357" lon="6.56875">
        <ele>19.266251</ele>
        <time>2011-10-16T10:21:27Z</time>
      </trkpt>
      <trkpt lat="43.24351" lon="6.56847">
        <ele>19.577494</ele>
        <time>2011-10-16T10:21:31Z</time>
      </trkpt>
      <trkpt lat="43.24352" lon="6.568">
        <ele>20.692869</ele>
        <time>2011-10-16T10:21:40Z</time>
      </trkpt>
      <trkpt lat="43.24361" lon="6.56771">
        <ele>21.945</ele>
        <time>2011-10-16T10:21:47Z</time>
      </trkpt>
      <trkpt lat="43.24372" lon="6.56737">
        <ele>23.52</ele>
        <time>2011-10-16T10:21:55Z</time>
      </trkpt>
      <trkpt lat="43.24365" lon="6.56729">
        <ele>23.405001</ele>
        <time>2011-10-16T10:21:58Z</time>
      </trkpt>
      <trkpt lat="43.24349" lon="6.56714">
        <ele>23.4662</ele>
        <time>2011-10-16T10:22:03Z</time>
      </trkpt>
      <trkpt lat="43.24313" lon="6.56683">
        <ele>24.33256</ele>
        <time>2011-10-16T10:22:12Z</time>
      </trkpt>
      <trkpt lat="43.2431" lon="6.5668">
        <ele>24.427137</ele>
        <time>2011-10-16T10:22:13Z</time>
      </trkpt>
      <trkpt lat="43.24297" lon="6.5667">
        <ele>24.738438</ele>
        <time>2011-10-16T10:22:17Z</time>
      </trkpt>
      <trkpt lat="43.24302" lon="6.5664">
        <ele>26.296249</ele>
        <time>2011-10-16T10:22:25Z</time>
      </trkpt>
      <trkpt lat="43.24291" lon="6.56615">
        <ele>27.2575</ele>
        <time>2011-10-16T10:22:31Z</time>
      </trkpt>
      <trkpt lat="43.24294" lon="6.56606">
        <ele>27.70125</ele>
        <time>2011-10-16T10:22:33Z</time>
      </trkpt>
      <trkpt lat="43.2431" lon="6.56579">
        <ele>29.745001</ele>
        <time>2011-10-16T10:22:40Z</time>
      </trkpt>
      <trkpt lat="43.24323" lon="6.56579">
        <ele>30.1075</ele>
        <time>2011-10-16T10:22:44Z</time>
      </trkpt>
      <trkpt lat="43.24329" lon="6.56585">
        <ele>29.93</ele>
        <time>2011-10-16T10:22:46Z</time>
      </trkpt>
      <trkpt lat="43.24345" lon="6.56578">
        <ele>30.866575</ele>
        <time>2011-10-16T10:22:51Z</time>
      </trkpt>
      <trkpt lat="43.2436" lon="6.56524">
        <ele>34.662498</ele>
        <time>2011-10-16T10:23:03Z</time>
      </trkpt>
      <trkpt lat="43.24328" lon="6.56484">
        <ele>36.34</ele>
        <time>2011-10-16T10:23:16Z</time>
      </trkpt>
      <trkpt lat="43.24312" lon="6.56439">
        <ele>40.458588</ele>
        <time>2011-10-16T10:23:29Z</time>
      </trkpt>
      <trkpt lat="43.24312" lon="6.56436">
        <ele>40.871162</ele>
        <time>2011-10-16T10:23:30Z</time>
      </trkpt>
      <trkpt lat="43.24319" lon="6.56429">
        <ele>41.650093</ele>
        <time>2011-10-16T10:23:34Z</time>
      </trkpt>
      <trkpt lat="43.24327" lon="6.56426">
        <ele>42.076351</ele>
        <time>2011-10-16T10:23:38Z</time>
      </trkpt>
      <trkpt lat="43.24334" lon="6.56401">
        <ele>45.23</ele>
        <time>2011-10-16T10:23:47Z</time>
      </trkpt>
      <trkpt lat="43.24344" lon="6.56383">
        <ele>47.59</ele>
        <time>2011-10-16T10:23:54Z</time>
      </trkpt>
      <trkpt lat="43.24353" lon="6.56378">
        <ele>48.364643</ele>
        <time>2011-10-16T10:23:58Z</time>
      </trkpt>
      <trkpt lat="43.24376" lon="6.56354">
        <ele>51.679874</ele>
        <time>2011-10-16T10:24:09Z</time>
      </trkpt>
      <trkpt lat="43.24379" lon="6.56344">
        <ele>52.879105</ele>
        <time>2011-10-16T10:24:13Z</time>
      </trkpt>
      <trkpt lat="43.24382" lon="6.56332">
        <ele>54.299828</ele>
        <time>2011-10-16T10:24:18Z</time>
      </trkpt>
      <trkpt lat="43.24376" lon="6.56315">
        <ele>56.276699</ele>
        <time>2011-10-16T10:24:26Z</time>
      </trkpt>
      <trkpt lat="43.24366" lon="6.56306">
        <ele>57.51392</ele>
        <time>2011-10-16T10:24:33Z</time>
      </trkpt>
      <trkpt lat="43.24354" lon="6.56293">
        <ele>59.285484</ele>
        <time>2011-10-16T10:24:42Z</time>
      </trkpt>
      <trkpt lat="43.24339" lon="6.56274">
        <ele>61.44603</ele>
        <time>2011-10-16T10:24:52Z</time>
      </trkpt>
      <trkpt lat="43.24333" lon="6.56264">
        <ele>62.619873</ele>
        <time>2011-10-16T10:24:56Z</time>
      </trkpt>
      <trkpt lat="43.2433" lon="6.56231">
        <ele>66.620003</ele>
        <time>2011-10-16T10:25:08Z</time>
      </trkpt>
      <trkpt lat="43.24332" lon="6.56211">
        <ele>68.198753</ele>
        <time>2011-10-16T10:25:15Z</time>
      </trkpt>
      <trkpt lat="43.24335" lon="6.562">
        <ele>69.046249</ele>
        <time>2011-10-16T10:25:19Z</time>
      </trkpt>
      <trkpt lat="43.24346" lon="6.5616">
        <ele>71.375</ele>
        <time>2011-10-16T10:25:32Z</time>
      </trkpt>
      <trkpt lat="43.24363" lon="6.56113">
        <ele>71.838158</ele>
        <time>2011-10-16T10:25:46Z</time>
      </trkpt>
      <trkpt lat="43.24368" lon="6.56108">
        <ele>71.683578</ele>
        <time>2011-10-16T10:25:48Z</time>
      </trkpt>
      <trkpt lat="43.24389" lon="6.56101">
        <ele>71.22551</ele>
        <time>2011-10-16T10:25:53Z</time>
      </trkpt>
      <trkpt lat="43.24407" lon="6.56089">
        <ele>70.98304</ele>
        <time>2011-10-16T10:25:57Z</time>
      </trkpt>
      <trkpt lat="43.24425" lon="6.56069">
        <ele>71.261757</ele>
        <time>2011-10-16T10:26:01Z</time>
      </trkpt>
      <trkpt lat="43.24441" lon="6.56053">
        <ele>71.809174</ele>
        <time>2011-10-16T10:26:05Z</time>
      </trkpt>
      <trkpt lat="43.2445" lon="6.56047">
        <ele>72.067268</ele>
        <time>2011-10-16T10:26:07Z</time>
      </trkpt>
      <trkpt lat="43.24459" lon="6.56044">
        <ele>72.831047</ele>
        <time>2011-10-16T10:26:09Z</time>
      </trkpt>
      <trkpt lat="43.24468" lon="6.56042">
        <ele>73.571854</ele>
        <time>2011-10-16T10:26:11Z</time>
      </trkpt>
      <trkpt lat="43.24529" lon="6.56061">
        <ele>79.061737</ele>
        <time>2011-10-16T10:26:26Z</time>
      </trkpt>
      <trkpt lat="43.24568" lon="6.56099">
        <ele>80.342773</ele>
        <time>2011-10-16T10:26:39Z</time>
      </trkpt>
      <trkpt lat="43.24571" lon="6.56103">
        <ele>80.487915</ele>
        <time>2011-10-16T10:26:40Z</time>
      </trkpt>
      <trkpt lat="43.24578" lon="6.56113">
        <ele>80.798798</ele>
        <time>2011-10-16T10:26:42Z</time>
      </trkpt>
      <trkpt lat="43.24623" lon="6.56151">
        <ele>81.625221</ele>
        <time>2011-10-16T10:26:55Z</time>
      </trkpt>
      <trkpt lat="43.24655" lon="6.56167">
        <ele>81.828323</ele>
        <time>2011-10-16T10:27:06Z</time>
      </trkpt>
      <trkpt lat="43.24659" lon="6.56168">
        <ele>81.868401</ele>
        <time>2011-10-16T10:27:07Z</time>
      </trkpt>
      <trkpt lat="43.24688" lon="6.56193">
        <ele>81.095741</ele>
        <time>2011-10-16T10:27:13Z</time>
      </trkpt>
      <trkpt lat="43.24734" lon="6.56202">
        <ele>80.424751</ele>
        <time>2011-10-16T10:27:19Z</time>
      </trkpt>
      <trkpt lat="43.24748" lon="6.56198">
        <ele>80.648422</ele>
        <time>2011-10-16T10:27:21Z</time>
      </trkpt>
      <trkpt lat="43.24778" lon="6.56197">
        <ele>81.780441</ele>
        <time>2011-10-16T10:27:26Z</time>
      </trkpt>
      <trkpt lat="43.24795" lon="6.56196">
        <ele>82.57589</ele>
        <time>2011-10-16T10:27:29Z</time>
      </trkpt>
      <trkpt lat="43.24821" lon="6.56199">
        <ele>82.887703</ele>
        <time>2011-10-16T10:27:34Z</time>
      </trkpt>
      <trkpt lat="43.24852" lon="6.56211">
        <ele>82.988869</ele>
        <time>2011-10-16T10:27:40Z</time>
      </trkpt>
      <trkpt lat="43.24875" lon="6.56234">
        <ele>83.338242</ele>
        <time>2011-10-16T10:27:45Z</time>
      </trkpt>
      <trkpt lat="43.24895" lon="6.56248">
        <ele>84.366272</ele>
        <time>2011-10-16T10:27:49Z</time>
      </trkpt>
      <trkpt lat="43.24915" lon="6.56267">
        <ele>86.248528</ele>
        <time>2011-10-16T10:27:54Z</time>
      </trkpt>
      <trkpt lat="43.24921" lon="6.56276">
        <ele>87.077499</ele>
        <time>2011-10-16T10:27:56Z</time>
      </trkpt>
      <trkpt lat="43.24931" lon="6.56297">
        <ele>87.412376</ele>
        <time>2011-10-16T10:28:00Z</time>
      </trkpt>
      <trkpt lat="43.24939" lon="6.56322">
        <ele>87.68</ele>
        <time>2011-10-16T10:28:04Z</time>
      </trkpt>
      <trkpt lat="43.24948" lon="6.56339">
        <ele>88.050003</ele>
        <time>2011-10-16T10:28:07Z</time>
      </trkpt>
      <trkpt lat="43.24961" lon="6.56354">
        <ele>87.693077</ele>
        <time>2011-10-16T10:28:11Z</time>
      </trkpt>
      <trkpt lat="43.24986" lon="6.56379">
        <ele>87.405914</ele>
        <time>2011-10-16T10:28:18Z</time>
      </trkpt>
      <trkpt lat="43.25029" lon="6.56398">
        <ele>88.496399</ele>
        <time>2011-10-16T10:28:27Z</time>
      </trkpt>
      <trkpt lat="43.25031" lon="6.56392">
        <ele>88.690002</ele>
        <time>2011-10-16T10:28:28Z</time>
      </trkpt>
      <trkpt lat="43.2504" lon="6.56332">
        <ele>88.852875</ele>
        <time>2011-10-16T10:28:37Z</time>
      </trkpt>
      <trkpt lat="43.25051" lon="6.56283">
        <ele>83.739326</ele>
        <time>2011-10-16T10:28:42Z</time>
      </trkpt>
      <trkpt lat="43.25053" lon="6.56245">
        <ele>79.097229</ele>
        <time>2011-10-16T10:28:45Z</time>
      </trkpt>
      <trkpt lat="43.25032" lon="6.56162">
        <ele>72.678574</ele>
        <time>2011-10-16T10:28:53Z</time>
      </trkpt>
      <trkpt lat="43.25025" lon="6.56156">
        <ele>72.363785</ele>
        <time>2011-10-16T10:28:54Z</time>
      </trkpt>
      <trkpt lat="43.24966" lon="6.56092">
        <ele>63.067501</ele>
        <time>2011-10-16T10:29:02Z</time>
      </trkpt>
      <trkpt lat="43.24946" lon="6.56059">
        <ele>58.02</ele>
        <time>2011-10-16T10:29:06Z</time>
      </trkpt>
      <trkpt lat="43.24919" lon="6.56053">
        <ele>58.085152</ele>
        <time>2011-10-16T10:29:12Z</time>
      </trkpt>
      <trkpt lat="43.24903" lon="6.56036">
        <ele>56.049652</ele>
        <time>2011-10-16T10:29:16Z</time>
      </trkpt>
      <trkpt lat="43.24891" lon="6.56011">
        <ele>54.050201</ele>
        <time>2011-10-16T10:29:20Z</time>
      </trkpt>
      <trkpt lat="43.24879" lon="6.56">
        <ele>53.727573</ele>
        <time>2011-10-16T10:29:23Z</time>
      </trkpt>
      <trkpt lat="43.2485" lon="6.5599">
        <ele>54.099125</ele>
        <time>2011-10-16T10:29:29Z</time>
      </trkpt>
      <trkpt lat="43.24829" lon="6.55982">
        <ele>54.457661</ele>
        <time>2011-10-16T10:29:33Z</time>
      </trkpt>
      <trkpt lat="43.24811" lon="6.55961">
        <ele>53.329437</ele>
        <time>2011-10-16T10:29:39Z</time>
      </trkpt>
      <trkpt lat="43.24809" lon="6.55942">
        <ele>51.740002</ele>
        <time>2011-10-16T10:29:42Z</time>
      </trkpt>
      <trkpt lat="43.24808" lon="6.55921">
        <ele>49.947498</ele>
        <time>2011-10-16T10:29:45Z</time>
      </trkpt>
      <trkpt lat="43.248" lon="6.5588">
        <ele>47.23629</ele>
        <time>2011-10-16T10:29:51Z</time>
      </trkpt>
      <trkpt lat="43.24796" lon="6.55844">
        <ele>44.14312</ele>
        <time>2011-10-16T10:29:56Z</time>
      </trkpt>
      <trkpt lat="43.24797" lon="6.55823">
        <ele>42.035</ele>
        <time>2011-10-16T10:29:58Z</time>
      </trkpt>
      <trkpt lat="43.24786" lon="6.55793">
        <ele>40.465</ele>
        <time>2011-10-16T10:30:04Z</time>
      </trkpt>
      <trkpt lat="43.24752" lon="6.558">
        <ele>44.129623</ele>
        <time>2011-10-16T10:30:14Z</time>
      </trkpt>
      <trkpt lat="43.24736" lon="6.55795">
        <ele>44.819199</ele>
        <time>2011-10-16T10:30:20Z</time>
      </trkpt>
      <trkpt lat="43.24727" lon="6.55794">
        <ele>45.169998</ele>
        <time>2011-10-16T10:30:24Z</time>
      </trkpt>
      <trkpt lat="43.24698" lon="6.55804">
        <ele>46.454094</ele>
        <time>2011-10-16T10:30:38Z</time>
      </trkpt>
      <trkpt lat="43.24676" lon="6.55819">
        <ele>48.351345</ele>
        <time>2011-10-16T10:30:49Z</time>
      </trkpt>
      <trkpt lat="43.24672" lon="6.55827">
        <ele>49.291248</ele>
        <time>2011-10-16T10:30:52Z</time>
      </trkpt>
      <trkpt lat="43.24666" lon="6.55846">
        <ele>51.736252</ele>
        <time>2011-10-16T10:30:59Z</time>
      </trkpt>
      <trkpt lat="43.24662" lon="6.55861">
        <ele>53.810001</ele>
        <time>2011-10-16T10:31:03Z</time>
      </trkpt>
      <trkpt lat="43.24652" lon="6.55869">
        <ele>54.368752</ele>
        <time>2011-10-16T10:31:07Z</time>
      </trkpt>
      <trkpt lat="43.24618" lon="6.55867">
        <ele>53.680416</ele>
        <time>2011-10-16T10:31:18Z</time>
      </trkpt>
      <trkpt lat="43.2459" lon="6.55868">
        <ele>54.721901</ele>
        <time>2011-10-16T10:31:29Z</time>
      </trkpt>
      <trkpt lat="43.24567" lon="6.5587">
        <ele>55.988956</ele>
        <time>2011-10-16T10:31:37Z</time>
      </trkpt>
      <trkpt lat="43.24552" lon="6.55873">
        <ele>56.981525</ele>
        <time>2011-10-16T10:31:41Z</time>
      </trkpt>
      <trkpt lat="43.24532" lon="6.55863">
        <ele>56.302502</ele>
        <time>2011-10-16T10:31:48Z</time>
      </trkpt>
      <trkpt lat="43.24526" lon="6.55856">
        <ele>55.610001</ele>
        <time>2011-10-16T10:31:50Z</time>
      </trkpt>
      <trkpt lat="43.24518" lon="6.5585">
        <ele>55.095001</ele>
        <time>2011-10-16T10:31:52Z</time>
      </trkpt>
      <trkpt lat="43.24496" lon="6.55852">
        <ele>55.869999</ele>
        <time>2011-10-16T10:31:59Z</time>
      </trkpt>
      <trkpt lat="43.24483" lon="6.5584">
        <ele>54.450001</ele>
        <time>2011-10-16T10:32:06Z</time>
      </trkpt>
      <trkpt lat="43.2448" lon="6.55841">
        <ele>54.68</ele>
        <time>2011-10-16T10:32:08Z</time>
      </trkpt>
      <trkpt lat="43.24465" lon="6.55843">
        <ele>55.07</ele>
        <time>2011-10-16T10:32:16Z</time>
      </trkpt>
      <trkpt lat="43.2446" lon="6.55844">
        <ele>55.18</ele>
        <time>2011-10-16T10:32:18Z</time>
      </trkpt>
      <trkpt lat="43.24454" lon="6.55841">
        <ele>54.891857</ele>
        <time>2011-10-16T10:32:20Z</time>
      </trkpt>
      <trkpt lat="43.24443" lon="6.55845">
        <ele>55.415688</ele>
        <time>2011-10-16T10:32:25Z</time>
      </trkpt>
      <trkpt lat="43.24433" lon="6.55846">
        <ele>55.635101</ele>
        <time>2011-10-16T10:32:29Z</time>
      </trkpt>
      <trkpt lat="43.24434" lon="6.55833">
        <ele>54.146786</ele>
        <time>2011-10-16T10:32:34Z</time>
      </trkpt>
      <trkpt lat="43.24447" lon="6.55819">
        <ele>52.266418</ele>
        <time>2011-10-16T10:32:39Z</time>
      </trkpt>
      <trkpt lat="43.24453" lon="6.55811">
        <ele>51.087296</ele>
        <time>2011-10-16T10:32:41Z</time>
      </trkpt>
      <trkpt lat="43.24467" lon="6.55797">
        <ele>49.544998</ele>
        <time>2011-10-16T10:32:45Z</time>
      </trkpt>
      <trkpt lat="43.24495" lon="6.55778">
        <ele>47.52</ele>
        <time>2011-10-16T10:32:51Z</time>
      </trkpt>
      <trkpt lat="43.24519" lon="6.55768">
        <ele>46.246326</ele>
        <time>2011-10-16T10:32:55Z</time>
      </trkpt>
      <trkpt lat="43.24541" lon="6.55751">
        <ele>44.819683</ele>
        <time>2011-10-16T10:32:59Z</time>
      </trkpt>
      <trkpt lat="43.24556" lon="6.55737">
        <ele>44.355301</ele>
        <time>2011-10-16T10:33:02Z</time>
      </trkpt>
      <trkpt lat="43.24575" lon="6.55727">
        <ele>44.255051</ele>
        <time>2011-10-16T10:33:05Z</time>
      </trkpt>
      <trkpt lat="43.24603" lon="6.55713">
        <ele>44.166252</ele>
        <time>2011-10-16T10:33:09Z</time>
      </trkpt>
      <trkpt lat="43.24646" lon="6.5568">
        <ele>38.540001</ele>
        <time>2011-10-16T10:33:17Z</time>
      </trkpt>
      <trkpt lat="43.24658" lon="6.55671">
        <ele>36.263748</ele>
        <time>2011-10-16T10:33:19Z</time>
      </trkpt>
      <trkpt lat="43.2467" lon="6.55652">
        <ele>33.5625</ele>
        <time>2011-10-16T10:33:22Z</time>
      </trkpt>
      <trkpt lat="43.24706" lon="6.55594">
        <ele>24.531975</ele>
        <time>2011-10-16T10:33:29Z</time>
      </trkpt>
      <trkpt lat="43.24712" lon="6.55576">
        <ele>22.80665</ele>
        <time>2011-10-16T10:33:32Z</time>
      </trkpt>
      <trkpt lat="43.24721" lon="6.55555">
        <ele>21.290625</ele>
        <time>2011-10-16T10:33:36Z</time>
      </trkpt>
      <trkpt lat="43.24732" lon="6.55544">
        <ele>20.51675</ele>
        <time>2011-10-16T10:33:38Z</time>
      </trkpt>
      <trkpt lat="43.24744" lon="6.55529">
        <ele>19.877501</ele>
        <time>2011-10-16T10:33:40Z</time>
      </trkpt>
      <trkpt lat="43.24775" lon="6.55502">
        <ele>17.958134</ele>
        <time>2011-10-16T10:33:45Z</time>
      </trkpt>
      <trkpt lat="43.24809" lon="6.55481">
        <ele>16.81875</ele>
        <time>2011-10-16T10:33:50Z</time>
      </trkpt>
      <trkpt lat="43.24822" lon="6.55454">
        <ele>15.535069</ele>
        <time>2011-10-16T10:33:53Z</time>
      </trkpt>
      <trkpt lat="43.24842" lon="6.55404">
        <ele>12.52275</ele>
        <time>2011-10-16T10:34:00Z</time>
      </trkpt>
      <trkpt lat="43.24839" lon="6.55399">
        <ele>12.482326</ele>
        <time>2011-10-16T10:34:01Z</time>
      </trkpt>
      <trkpt lat="43.24832" lon="6.55387">
        <ele>12.4325</ele>
        <time>2011-10-16T10:34:03Z</time>
      </trkpt>
      <trkpt lat="43.2482" lon="6.55368">
        <ele>12.4425</ele>
        <time>2011-10-16T10:34:06Z</time>
      </trkpt>
      <trkpt lat="43.24779" lon="6.55292">
        <ele>10.633762</ele>
        <time>2011-10-16T10:34:16Z</time>
      </trkpt>
      <trkpt lat="43.24737" lon="6.55264">
        <ele>12.865594</ele>
        <time>2011-10-16T10:34:23Z</time>
      </trkpt>
      <trkpt lat="43.24691" lon="6.55209">
        <ele>13.20515</ele>
        <time>2011-10-16T10:34:32Z</time>
      </trkpt>
      <trkpt lat="43.24636" lon="6.55163">
        <ele>14.071875</ele>
        <time>2011-10-16T10:34:42Z</time>
      </trkpt>
      <trkpt lat="43.24573" lon="6.55116">
        <ele>14.63125</ele>
        <time>2011-10-16T10:34:54Z</time>
      </trkpt>
      <trkpt lat="43.24568" lon="6.55112">
        <ele>14.67375</ele>
        <time>2011-10-16T10:34:55Z</time>
      </trkpt>
      <trkpt lat="43.24551" lon="6.55113">
        <ele>15.09875</ele>
        <time>2011-10-16T10:34:59Z</time>
      </trkpt>
      <trkpt lat="43.24537" lon="6.5516">
        <ele>16.5285</ele>
        <time>2011-10-16T10:35:08Z</time>
      </trkpt>
      <trkpt lat="43.24534" lon="6.55192">
        <ele>17.661375</ele>
        <time>2011-10-16T10:35:13Z</time>
      </trkpt>
      <trkpt lat="43.24536" lon="6.55205">
        <ele>18.168131</ele>
        <time>2011-10-16T10:35:15Z</time>
      </trkpt>
      <trkpt lat="43.24543" lon="6.55253">
        <ele>20.822174</ele>
        <time>2011-10-16T10:35:26Z</time>
      </trkpt>
      <trkpt lat="43.24557" lon="6.55276">
        <ele>22.50441</ele>
        <time>2011-10-16T10:35:37Z</time>
      </trkpt>
      <trkpt lat="43.2456" lon="6.55297">
        <ele>24.002855</ele>
        <time>2011-10-16T10:35:45Z</time>
      </trkpt>
      <trkpt lat="43.24548" lon="6.55339">
        <ele>26.6106</ele>
        <time>2011-10-16T10:35:59Z</time>
      </trkpt>
      <trkpt lat="43.24538" lon="6.5538">
        <ele>28.851063</ele>
        <time>2011-10-16T10:36:13Z</time>
      </trkpt>
      <trkpt lat="43.24523" lon="6.55413">
        <ele>30.661125</ele>
        <time>2011-10-16T10:36:25Z</time>
      </trkpt>
      <trkpt lat="43.24494" lon="6.55446">
        <ele>33.632206</ele>
        <time>2011-10-16T10:36:37Z</time>
      </trkpt>
      <trkpt lat="43.2448" lon="6.55477">
        <ele>36.442661</ele>
        <time>2011-10-16T10:36:48Z</time>
      </trkpt>
      <trkpt lat="43.24464" lon="6.55503">
        <ele>39.612026</ele>
        <time>2011-10-16T10:36:58Z</time>
      </trkpt>
      <trkpt lat="43.24457" lon="6.55512">
        <ele>40.871494</ele>
        <time>2011-10-16T10:37:02Z</time>
      </trkpt>
      <trkpt lat="43.24448" lon="6.55545">
        <ele>44.029202</ele>
        <time>2011-10-16T10:37:14Z</time>
      </trkpt>
      <trkpt lat="43.24434" lon="6.55579">
        <ele>47.298889</ele>
        <time>2011-10-16T10:37:26Z</time>
      </trkpt>
      <trkpt lat="43.24433" lon="6.5561">
        <ele>47.703598</ele>
        <time>2011-10-16T10:37:36Z</time>
      </trkpt>
      <trkpt lat="43.24432" lon="6.55645">
        <ele>47.526901</ele>
        <time>2011-10-16T10:37:47Z</time>
      </trkpt>
      <trkpt lat="43.24431" lon="6.55659">
        <ele>47.521416</ele>
        <time>2011-10-16T10:37:53Z</time>
      </trkpt>
      <trkpt lat="43.24427" lon="6.55663">
        <ele>48.106949</ele>
        <time>2011-10-16T10:37:56Z</time>
      </trkpt>
      <trkpt lat="43.2442" lon="6.55677">
        <ele>48.909161</ele>
        <time>2011-10-16T10:38:03Z</time>
      </trkpt>
      <trkpt lat="43.24393" lon="6.55704">
        <ele>53.700085</ele>
        <time>2011-10-16T10:38:16Z</time>
      </trkpt>
      <trkpt lat="43.24362" lon="6.55726">
        <ele>58.960831</ele>
        <time>2011-10-16T10:38:27Z</time>
      </trkpt>
      <trkpt lat="43.24337" lon="6.55756">
        <ele>62.387489</ele>
        <time>2011-10-16T10:38:38Z</time>
      </trkpt>
      <trkpt lat="43.24311" lon="6.55789">
        <ele>64.302498</ele>
        <time>2011-10-16T10:38:50Z</time>
      </trkpt>
      <trkpt lat="43.24289" lon="6.55824">
        <ele>65.956329</ele>
        <time>2011-10-16T10:39:00Z</time>
      </trkpt>
      <trkpt lat="43.24284" lon="6.5584">
        <ele>66.061737</ele>
        <time>2011-10-16T10:39:03Z</time>
      </trkpt>
      <trkpt lat="43.24303" lon="6.55883">
        <ele>65.771111</ele>
        <time>2011-10-16T10:39:12Z</time>
      </trkpt>
      <trkpt lat="43.24337" lon="6.55945">
        <ele>67.684998</ele>
        <time>2011-10-16T10:39:26Z</time>
      </trkpt>
      <trkpt lat="43.24353" lon="6.55975">
        <ele>67.917503</ele>
        <time>2011-10-16T10:39:33Z</time>
      </trkpt>
      <trkpt lat="43.24356" lon="6.56032">
        <ele>70.272202</ele>
        <time>2011-10-16T10:39:44Z</time>
      </trkpt>
      <trkpt lat="43.24353" lon="6.56073">
        <ele>71.493752</ele>
        <time>2011-10-16T10:39:53Z</time>
      </trkpt>
      <trkpt lat="43.24334" lon="6.56101">
        <ele>72.346252</ele>
        <time>2011-10-16T10:40:03Z</time>
      </trkpt>
      <trkpt lat="43.2429" lon="6.56096">
        <ele>73.476334</ele>
        <time>2011-10-16T10:40:15Z</time>
      </trkpt>
      <trkpt lat="43.24275" lon="6.56092">
        <ele>73.974876</ele>
        <time>2011-10-16T10:40:19Z</time>
      </trkpt>
      <trkpt lat="43.24268" lon="6.56113">
        <ele>73.724548</ele>
        <time>2011-10-16T10:40:24Z</time>
      </trkpt>
      <trkpt lat="43.24255" lon="6.56148">
        <ele>72.934608</ele>
        <time>2011-10-16T10:40:29Z</time>
      </trkpt>
      <trkpt lat="43.2425" lon="6.56164">
        <ele>72.380753</ele>
        <time>2011-10-16T10:40:31Z</time>
      </trkpt>
      <trkpt lat="43.24235" lon="6.56179">
        <ele>71.277451</ele>
        <time>2011-10-16T10:40:35Z</time>
      </trkpt>
      <trkpt lat="43.24228" lon="6.56191">
        <ele>70.184502</ele>
        <time>2011-10-16T10:40:37Z</time>
      </trkpt>
      <trkpt lat="43.24216" lon="6.56219">
        <ele>67.631622</ele>
        <time>2011-10-16T10:40:41Z</time>
      </trkpt>
      <trkpt lat="43.24208" lon="6.56239">
        <ele>65.983467</ele>
        <time>2011-10-16T10:40:44Z</time>
      </trkpt>
      <trkpt lat="43.24192" lon="6.56276">
        <ele>62.396873</ele>
        <time>2011-10-16T10:40:50Z</time>
      </trkpt>
      <trkpt lat="43.24173" lon="6.56296">
        <ele>60.416248</ele>
        <time>2011-10-16T10:40:54Z</time>
      </trkpt>
      <trkpt lat="43.24162" lon="6.56302">
        <ele>59.87817</ele>
        <time>2011-10-16T10:40:56Z</time>
      </trkpt>
      <trkpt lat="43.24138" lon="6.56318">
        <ele>57.910694</ele>
        <time>2011-10-16T10:41:00Z</time>
      </trkpt>
      <trkpt lat="43.24121" lon="6.56329">
        <ele>56.425915</ele>
        <time>2011-10-16T10:41:03Z</time>
      </trkpt>
      <trkpt lat="43.24115" lon="6.56391">
        <ele>50.57375</ele>
        <time>2011-10-16T10:41:10Z</time>
      </trkpt>
      <trkpt lat="43.24114" lon="6.56413">
        <ele>49.147655</ele>
        <time>2011-10-16T10:41:12Z</time>
      </trkpt>
      <trkpt lat="43.24098" lon="6.56444">
        <ele>46.607967</ele>
        <time>2011-10-16T10:41:18Z</time>
      </trkpt>
      <trkpt lat="43.24081" lon="6.5646">
        <ele>44.561817</ele>
        <time>2011-10-16T10:41:24Z</time>
      </trkpt>
      <trkpt lat="43.24061" lon="6.5647">
        <ele>41.119503</ele>
        <time>2011-10-16T10:41:30Z</time>
      </trkpt>
      <trkpt lat="43.24072" lon="6.56505">
        <ele>38.211899</ele>
        <time>2011-10-16T10:41:36Z</time>
      </trkpt>
      <trkpt lat="43.24071" lon="6.56509">
        <ele>37.547012</ele>
        <time>2011-10-16T10:41:37Z</time>
      </trkpt>
      <trkpt lat="43.24057" lon="6.56554">
        <ele>31.498501</ele>
        <time>2011-10-16T10:41:46Z</time>
      </trkpt>
      <trkpt lat="43.24041" lon="6.56577">
        <ele>27.917088</ele>
        <time>2011-10-16T10:41:50Z</time>
      </trkpt>
      <trkpt lat="43.24035" lon="6.56693">
        <ele>21.434999</ele>
        <time>2011-10-16T10:42:01Z</time>
      </trkpt>
      <trkpt lat="43.24058" lon="6.56717">
        <ele>21.012077</ele>
        <time>2011-10-16T10:42:07Z</time>
      </trkpt>
      <trkpt lat="43.24072" lon="6.56703">
        <ele>22.428328</ele>
        <time>2011-10-16T10:42:11Z</time>
      </trkpt>
      <trkpt lat="43.24098" lon="6.56687">
        <ele>24.390301</ele>
        <time>2011-10-16T10:42:18Z</time>
      </trkpt>
      <trkpt lat="43.24111" lon="6.56687">
        <ele>24.86125</ele>
        <time>2011-10-16T10:42:21Z</time>
      </trkpt>
      <trkpt lat="43.24138" lon="6.56701">
        <ele>24.436251</ele>
        <time>2011-10-16T10:42:27Z</time>
      </trkpt>
      <trkpt lat="43.24164" lon="6.56697">
        <ele>25.217625</ele>
        <time>2011-10-16T10:42:35Z</time>
      </trkpt>
      <trkpt lat="43.24187" lon="6.56695">
        <ele>25.347788</ele>
        <time>2011-10-16T10:42:41Z</time>
      </trkpt>
      <trkpt lat="43.24202" lon="6.56701">
        <ele>24.853287</ele>
        <time>2011-10-16T10:42:44Z</time>
      </trkpt>
      <trkpt lat="43.24216" lon="6.56717">
        <ele>23.577499</ele>
        <time>2011-10-16T10:42:48Z</time>
      </trkpt>
      <trkpt lat="43.2422" lon="6.56731">
        <ele>23.057499</ele>
        <time>2011-10-16T10:42:50Z</time>
      </trkpt>
      <trkpt lat="43.24246" lon="6.5676">
        <ele>21.497807</ele>
        <time>2011-10-16T10:42:57Z</time>
      </trkpt>
      <trkpt lat="43.24262" lon="6.56778">
        <ele>20.181263</ele>
        <time>2011-10-16T10:43:01Z</time>
      </trkpt>
      <trkpt lat="43.24268" lon="6.56806">
        <ele>19.56208</ele>
        <time>2011-10-16T10:43:09Z</time>
      </trkpt>
      <trkpt lat="43.2425" lon="6.56828">
        <ele>19.910812</ele>
        <time>2011-10-16T10:43:15Z</time>
      </trkpt>
      <trkpt lat="43.24243" lon="6.56849">
        <ele>19.6544</ele>
        <time>2011-10-16T10:43:20Z</time>
      </trkpt>
      <trkpt lat="43.24247" lon="6.56863">
        <ele>19.170969</ele>
        <time>2011-10-16T10:43:23Z</time>
      </trkpt>
      <trkpt lat="43.24265" lon="6.569">
        <ele>18.116222</ele>
        <time>2011-10-16T10:43:31Z</time>
      </trkpt>
      <trkpt lat="43.24292" lon="6.56914">
        <ele>17.916962</ele>
        <time>2011-10-16T10:43:36Z</time>
      </trkpt>
      <trkpt lat="43.24323" lon="6.56937">
        <ele>17.989902</ele>
        <time>2011-10-16T10:43:42Z</time>
      </trkpt>
      <trkpt lat="43.24334" lon="6.56943">
        <ele>18.105469</ele>
        <time>2011-10-16T10:43:44Z</time>
      </trkpt>
      <trkpt lat="43.24348" lon="6.56951">
        <ele>18.189571</ele>
        <time>2011-10-16T10:43:47Z</time>
      </trkpt>
      <trkpt lat="43.24362" lon="6.56955">
        <ele>18.261333</ele>
        <time>2011-10-16T10:43:50Z</time>
      </trkpt>
      <trkpt lat="43.24371" lon="6.56935">
        <ele>18.73525</ele>
        <time>2011-10-16T10:43:55Z</time>
      </trkpt>
      <trkpt lat="43.24357" lon="6.56858">
        <ele>19.530001</ele>
        <time>2011-10-16T10:44:06Z</time>
      </trkpt>
      <trkpt lat="43.24354" lon="6.56847">
        <ele>19.664782</ele>
        <time>2011-10-16T10:44:08Z</time>
      </trkpt>
      <trkpt lat="43.24351" lon="6.56798">
        <ele>20.714907</ele>
        <time>2011-10-16T10:44:18Z</time>
      </trkpt>
      <trkpt lat="43.24361" lon="6.56769">
        <ele>22.025</ele>
        <time>2011-10-16T10:44:25Z</time>
      </trkpt>
      <trkpt lat="43.24376" lon="6.56738">
        <ele>23.635</ele>
        <time>2011-10-16T10:44:33Z</time>
      </trkpt>
      <trkpt lat="43.24372" lon="6.56732">
        <ele>23.6625</ele>
        <time>2011-10-16T10:44:35Z</time>
      </trkpt>
      <trkpt lat="43.24341" lon="6.56702">
        <ele>23.817844</ele>
        <time>2011-10-16T10:44:47Z</time>
      </trkpt>
      <trkpt lat="43.24324" lon="6.56685">
        <ele>24.458763</ele>
        <time>2011-10-16T10:44:52Z</time>
      </trkpt>
      <trkpt lat="43.24311" lon="6.5667">
        <ele>25.051458</ele>
        <time>2011-10-16T10:44:56Z</time>
      </trkpt>
      <trkpt lat="43.24309" lon="6.56655">
        <ele>25.77</ele>
        <time>2011-10-16T10:45:00Z</time>
      </trkpt>
      <trkpt lat="43.24312" lon="6.56648">
        <ele>26.20125</ele>
        <time>2011-10-16T10:45:02Z</time>
      </trkpt>
      <trkpt lat="43.24305" lon="6.56624">
        <ele>27.11375</ele>
        <time>2011-10-16T10:45:08Z</time>
      </trkpt>
      <trkpt lat="43.243" lon="6.56606">
        <ele>27.880001</ele>
        <time>2011-10-16T10:45:12Z</time>
      </trkpt>
      <trkpt lat="43.24314" lon="6.56578">
        <ele>29.91</ele>
        <time>2011-10-16T10:45:19Z</time>
      </trkpt>
      <trkpt lat="43.24325" lon="6.56579">
        <ele>30.157499</ele>
        <time>2011-10-16T10:45:24Z</time>
      </trkpt>
      <trkpt lat="43.24336" lon="6.56588">
        <ele>29.889999</ele>
        <time>2011-10-16T10:45:28Z</time>
      </trkpt>
      <trkpt lat="43.24362" lon="6.56542">
        <ele>33.52</ele>
        <time>2011-10-16T10:45:40Z</time>
      </trkpt>
      <trkpt lat="43.24356" lon="6.5651">
        <ele>35.455002</ele>
        <time>2011-10-16T10:45:49Z</time>
      </trkpt>
      <trkpt lat="43.24326" lon="6.56477">
        <ele>36.759251</ele>
        <time>2011-10-16T10:46:01Z</time>
      </trkpt>
      <trkpt lat="43.24315" lon="6.56437">
        <ele>40.79137</ele>
        <time>2011-10-16T10:46:12Z</time>
      </trkpt>
      <trkpt lat="43.24324" lon="6.5643">
        <ele>41.656174</ele>
        <time>2011-10-16T10:46:17Z</time>
      </trkpt>
      <trkpt lat="43.24331" lon="6.56415">
        <ele>43.290001</ele>
        <time>2011-10-16T10:46:23Z</time>
      </trkpt>
      <trkpt lat="43.24345" lon="6.56384">
        <ele>47.529999</ele>
        <time>2011-10-16T10:46:36Z</time>
      </trkpt>
      <trkpt lat="43.24365" lon="6.56371">
        <ele>49.475533</ele>
        <time>2011-10-16T10:46:46Z</time>
      </trkpt>
      <trkpt lat="43.24381" lon="6.56344">
        <ele>52.785313</ele>
        <time>2011-10-16T10:46:57Z</time>
      </trkpt>
      <trkpt lat="43.24384" lon="6.56336">
        <ele>53.838074</ele>
        <time>2011-10-16T10:47:02Z</time>
      </trkpt>
      <trkpt lat="43.24382" lon="6.56323">
        <ele>55.35305</ele>
        <time>2011-10-16T10:47:10Z</time>
      </trkpt>
      <trkpt lat="43.24373" lon="6.56314">
        <ele>56.44215</ele>
        <time>2011-10-16T10:47:17Z</time>
      </trkpt>
      <trkpt lat="43.24358" lon="6.56296">
        <ele>58.822014</ele>
        <time>2011-10-16T10:47:30Z</time>
      </trkpt>
      <trkpt lat="43.24342" lon="6.56279">
        <ele>60.882126</ele>
        <time>2011-10-16T10:47:39Z</time>
      </trkpt>
      <trkpt lat="43.24334" lon="6.56264">
        <ele>62.724377</ele>
        <time>2011-10-16T10:47:45Z</time>
      </trkpt>
      <trkpt lat="43.24332" lon="6.56251">
        <ele>64.223587</ele>
        <time>2011-10-16T10:47:49Z</time>
      </trkpt>
      <trkpt lat="43.24331" lon="6.56232">
        <ele>66.510002</ele>
        <time>2011-10-16T10:47:54Z</time>
      </trkpt>
      <trkpt lat="43.2434" lon="6.56186">
        <ele>70.135002</ele>
        <time>2011-10-16T10:48:06Z</time>
      </trkpt>
      <trkpt lat="43.24348" lon="6.56149">
        <ele>71.535004</ele>
        <time>2011-10-16T10:48:17Z</time>
      </trkpt>
      <trkpt lat="43.24358" lon="6.56117">
        <ele>71.890297</ele>
        <time>2011-10-16T10:48:26Z</time>
      </trkpt>
      <trkpt lat="43.2437" lon="6.56107">
        <ele>71.646477</ele>
        <time>2011-10-16T10:48:31Z</time>
      </trkpt>
      <trkpt lat="43.24412" lon="6.56085">
        <ele>71.002686</ele>
        <time>2011-10-16T10:48:41Z</time>
      </trkpt>
      <trkpt lat="43.24428" lon="6.56063">
        <ele>71.413361</ele>
        <time>2011-10-16T10:48:45Z</time>
      </trkpt>
      <trkpt lat="43.24447" lon="6.56049">
        <ele>71.934509</ele>
        <time>2011-10-16T10:48:49Z</time>
      </trkpt>
      <trkpt lat="43.24461" lon="6.56044">
        <ele>73.001038</ele>
        <time>2011-10-16T10:48:52Z</time>
      </trkpt>
      <trkpt lat="43.2447" lon="6.56043">
        <ele>73.762497</ele>
        <time>2011-10-16T10:48:54Z</time>
      </trkpt>
      <trkpt lat="43.24524" lon="6.56059">
        <ele>78.573906</ele>
        <time>2011-10-16T10:49:08Z</time>
      </trkpt>
      <trkpt lat="43.24553" lon="6.56077">
        <ele>80.071053</ele>
        <time>2011-10-16T10:49:18Z</time>
      </trkpt>
      <trkpt lat="43.24563" lon="6.56093">
        <ele>80.190376</ele>
        <time>2011-10-16T10:49:22Z</time>
      </trkpt>
      <trkpt lat="43.24573" lon="6.56106">
        <ele>80.560623</ele>
        <time>2011-10-16T10:49:25Z</time>
      </trkpt>
      <trkpt lat="43.24607" lon="6.56138">
        <ele>81.358337</ele>
        <time>2011-10-16T10:49:35Z</time>
      </trkpt>
      <trkpt lat="43.24617" lon="6.56145">
        <ele>81.507751</ele>
        <time>2011-10-16T10:49:38Z</time>
      </trkpt>
      <trkpt lat="43.24653" lon="6.56166">
        <ele>81.80706</ele>
        <time>2011-10-16T10:49:49Z</time>
      </trkpt>
      <trkpt lat="43.2467" lon="6.56176">
        <ele>81.935928</ele>
        <time>2011-10-16T10:49:53Z</time>
      </trkpt>
      <trkpt lat="43.24689" lon="6.56193">
        <ele>81.025925</ele>
        <time>2011-10-16T10:49:56Z</time>
      </trkpt>
      <trkpt lat="43.24737" lon="6.56203">
        <ele>80.455925</ele>
        <time>2011-10-16T10:50:02Z</time>
      </trkpt>
      <trkpt lat="43.24759" lon="6.56197">
        <ele>80.844002</ele>
        <time>2011-10-16T10:50:05Z</time>
      </trkpt>
      <trkpt lat="43.24783" lon="6.56197">
        <ele>82.009903</ele>
        <time>2011-10-16T10:50:09Z</time>
      </trkpt>
      <trkpt lat="43.24804" lon="6.56195">
        <ele>82.996323</ele>
        <time>2011-10-16T10:50:13Z</time>
      </trkpt>
      <trkpt lat="43.24813" lon="6.56196">
        <ele>82.925453</ele>
        <time>2011-10-16T10:50:15Z</time>
      </trkpt>
      <trkpt lat="43.24831" lon="6.56201">
        <ele>82.852943</ele>
        <time>2011-10-16T10:50:19Z</time>
      </trkpt>
      <trkpt lat="43.24881" lon="6.56242">
        <ele>83.65126</ele>
        <time>2011-10-16T10:50:30Z</time>
      </trkpt>
      <trkpt lat="43.24894" lon="6.56249">
        <ele>84.387215</ele>
        <time>2011-10-16T10:50:33Z</time>
      </trkpt>
      <trkpt lat="43.24915" lon="6.5627">
        <ele>86.453674</ele>
        <time>2011-10-16T10:50:39Z</time>
      </trkpt>
      <trkpt lat="43.24921" lon="6.56278">
        <ele>87.06134</ele>
        <time>2011-10-16T10:50:41Z</time>
      </trkpt>
      <trkpt lat="43.24931" lon="6.56297">
        <ele>87.408943</ele>
        <time>2011-10-16T10:50:45Z</time>
      </trkpt>
      <trkpt lat="43.24934" lon="6.56308">
        <ele>87.525002</ele>
        <time>2011-10-16T10:50:47Z</time>
      </trkpt>
      <trkpt lat="43.24943" lon="6.56329">
        <ele>87.856247</ele>
        <time>2011-10-16T10:50:51Z</time>
      </trkpt>
      <trkpt lat="43.24951" lon="6.56342">
        <ele>88.090668</ele>
        <time>2011-10-16T10:50:54Z</time>
      </trkpt>
      <trkpt lat="43.2496" lon="6.56353">
        <ele>87.67334</ele>
        <time>2011-10-16T10:50:57Z</time>
      </trkpt>
      <trkpt lat="43.24985" lon="6.5638">
        <ele>87.3545</ele>
        <time>2011-10-16T10:51:05Z</time>
      </trkpt>
      <trkpt lat="43.25025" lon="6.564">
        <ele>88.308578</ele>
        <time>2011-10-16T10:51:13Z</time>
      </trkpt>
      <trkpt lat="43.25031" lon="6.56391">
        <ele>88.723999</ele>
        <time>2011-10-16T10:51:15Z</time>
      </trkpt>
      <trkpt lat="43.2504" lon="6.56347">
        <ele>89.993752</ele>
        <time>2011-10-16T10:51:22Z</time>
      </trkpt>
      <trkpt lat="43.25051" lon="6.56302">
        <ele>85.589996</ele>
        <time>2011-10-16T10:51:27Z</time>
      </trkpt>
      <trkpt lat="43.25053" lon="6.56266">
        <ele>81.454063</ele>
        <time>2011-10-16T10:51:30Z</time>
      </trkpt>
      <trkpt lat="43.25055" lon="6.56242">
        <ele>78.24247</ele>
        <time>2011-10-16T10:51:32Z</time>
      </trkpt>
      <trkpt lat="43.25051" lon="6.56196">
        <ele>73.657402</ele>
        <time>2011-10-16T10:51:36Z</time>
      </trkpt>
      <trkpt lat="43.25033" lon="6.56161">
        <ele>72.346199</ele>
        <time>2011-10-16T10:51:40Z</time>
      </trkpt>
      <trkpt lat="43.24965" lon="6.56087">
        <ele>62.317501</ele>
        <time>2011-10-16T10:51:49Z</time>
      </trkpt>
      <trkpt lat="43.24933" lon="6.56054">
        <ele>57.655376</ele>
        <time>2011-10-16T10:51:56Z</time>
      </trkpt>
      <trkpt lat="43.24907" lon="6.56038">
        <ele>56.261074</ele>
        <time>2011-10-16T10:52:02Z</time>
      </trkpt>
      <trkpt lat="43.249" lon="6.56025">
        <ele>54.683376</ele>
        <time>2011-10-16T10:52:04Z</time>
      </trkpt>
      <trkpt lat="43.24893" lon="6.56013">
        <ele>54.003784</ele>
        <time>2011-10-16T10:52:06Z</time>
      </trkpt>
      <trkpt lat="43.24884" lon="6.56003">
        <ele>53.641579</ele>
        <time>2011-10-16T10:52:08Z</time>
      </trkpt>
      <trkpt lat="43.24864" lon="6.55993">
        <ele>53.815704</ele>
        <time>2011-10-16T10:52:12Z</time>
      </trkpt>
      <trkpt lat="43.24841" lon="6.55987">
        <ele>54.349251</ele>
        <time>2011-10-16T10:52:16Z</time>
      </trkpt>
      <trkpt lat="43.24813" lon="6.55969">
        <ele>53.94725</ele>
        <time>2011-10-16T10:52:23Z</time>
      </trkpt>
      <trkpt lat="43.24811" lon="6.55958">
        <ele>52.91</ele>
        <time>2011-10-16T10:52:25Z</time>
      </trkpt>
      <trkpt lat="43.24809" lon="6.55937">
        <ele>51.372501</ele>
        <time>2011-10-16T10:52:28Z</time>
      </trkpt>
      <trkpt lat="43.24801" lon="6.55887">
        <ele>47.730858</ele>
        <time>2011-10-16T10:52:35Z</time>
      </trkpt>
      <trkpt lat="43.24795" lon="6.55844">
        <ele>44.276157</ele>
        <time>2011-10-16T10:52:41Z</time>
      </trkpt>
      <trkpt lat="43.24795" lon="6.55825">
        <ele>42.3825</ele>
        <time>2011-10-16T10:52:43Z</time>
      </trkpt>
      <trkpt lat="43.24783" lon="6.55793">
        <ele>40.850002</ele>
        <time>2011-10-16T10:52:50Z</time>
      </trkpt>
      <trkpt lat="43.24748" lon="6.55799">
        <ele>44.335152</ele>
        <time>2011-10-16T10:53:01Z</time>
      </trkpt>
      <trkpt lat="43.24738" lon="6.55795">
        <ele>44.602524</ele>
        <time>2011-10-16T10:53:06Z</time>
      </trkpt>
      <trkpt lat="43.24731" lon="6.55793">
        <ele>44.8405</ele>
        <time>2011-10-16T10:53:10Z</time>
      </trkpt>
      <trkpt lat="43.2471" lon="6.55799">
        <ele>45.736111</ele>
        <time>2011-10-16T10:53:20Z</time>
      </trkpt>
      <trkpt lat="43.24703" lon="6.558">
        <ele>45.878094</ele>
        <time>2011-10-16T10:53:23Z</time>
      </trkpt>
      <trkpt lat="43.24676" lon="6.55818">
        <ele>48.218559</ele>
        <time>2011-10-16T10:53:37Z</time>
      </trkpt>
      <trkpt lat="43.24673" lon="6.55831">
        <ele>49.90625</ele>
        <time>2011-10-16T10:53:41Z</time>
      </trkpt>
      <trkpt lat="43.24661" lon="6.55864">
        <ele>54.13625</ele>
        <time>2011-10-16T10:53:51Z</time>
      </trkpt>
      <trkpt lat="43.24657" lon="6.55866">
        <ele>54.196251</ele>
        <time>2011-10-16T10:53:52Z</time>
      </trkpt>
      <trkpt lat="43.24614" lon="6.55866">
        <ele>53.66848</ele>
        <time>2011-10-16T10:54:04Z</time>
      </trkpt>
      <trkpt lat="43.2458" lon="6.55866">
        <ele>54.844345</ele>
        <time>2011-10-16T10:54:14Z</time>
      </trkpt>
      <trkpt lat="43.24564" lon="6.55868">
        <ele>55.7449</ele>
        <time>2011-10-16T10:54:20Z</time>
      </trkpt>
      <trkpt lat="43.24552" lon="6.55873">
        <ele>56.870564</ele>
        <time>2011-10-16T10:54:23Z</time>
      </trkpt>
      <trkpt lat="43.24532" lon="6.55861">
        <ele>56.047501</ele>
        <time>2011-10-16T10:54:30Z</time>
      </trkpt>
      <trkpt lat="43.24528" lon="6.55858">
        <ele>55.7775</ele>
        <time>2011-10-16T10:54:31Z</time>
      </trkpt>
      <trkpt lat="43.24496" lon="6.55853">
        <ele>55.98</ele>
        <time>2011-10-16T10:54:40Z</time>
      </trkpt>
      <trkpt lat="43.24487" lon="6.55841">
        <ele>54.599998</ele>
        <time>2011-10-16T10:54:45Z</time>
      </trkpt>
      <trkpt lat="43.24484" lon="6.55842">
        <ele>54.66</ele>
        <time>2011-10-16T10:54:46Z</time>
      </trkpt>
      <trkpt lat="43.24456" lon="6.55845">
        <ele>55.378574</ele>
        <time>2011-10-16T10:54:57Z</time>
      </trkpt>
      <trkpt lat="43.24438" lon="6.55848">
        <ele>55.823399</ele>
        <time>2011-10-16T10:55:05Z</time>
      </trkpt>
      <trkpt lat="43.24436" lon="6.55832">
        <ele>54.034061</ele>
        <time>2011-10-16T10:55:12Z</time>
      </trkpt>
      <trkpt lat="43.24445" lon="6.55822">
        <ele>52.684376</ele>
        <time>2011-10-16T10:55:15Z</time>
      </trkpt>
      <trkpt lat="43.24463" lon="6.558">
        <ele>49.814999</ele>
        <time>2011-10-16T10:55:20Z</time>
      </trkpt>
      <trkpt lat="43.24472" lon="6.55793">
        <ele>49.1325</ele>
        <time>2011-10-16T10:55:22Z</time>
      </trkpt>
      <trkpt lat="43.24493" lon="6.5578">
        <ele>47.647499</ele>
        <time>2011-10-16T10:55:26Z</time>
      </trkpt>
      <trkpt lat="43.24519" lon="6.55769">
        <ele>46.324669</ele>
        <time>2011-10-16T10:55:30Z</time>
      </trkpt>
      <trkpt lat="43.24543" lon="6.55751">
        <ele>44.7999</ele>
        <time>2011-10-16T10:55:34Z</time>
      </trkpt>
      <trkpt lat="43.24562" lon="6.55735">
        <ele>44.287735</ele>
        <time>2011-10-16T10:55:37Z</time>
      </trkpt>
      <trkpt lat="43.24604" lon="6.55713">
        <ele>44.049999</ele>
        <time>2011-10-16T10:55:43Z</time>
      </trkpt>
      <trkpt lat="43.24642" lon="6.55681">
        <ele>39.147999</ele>
        <time>2011-10-16T10:55:50Z</time>
      </trkpt>
      <trkpt lat="43.24647" lon="6.55677">
        <ele>38.266251</ele>
        <time>2011-10-16T10:55:51Z</time>
      </trkpt>
      <trkpt lat="43.24674" lon="6.55637">
        <ele>31.910431</ele>
        <time>2011-10-16T10:55:57Z</time>
      </trkpt>
      <trkpt lat="43.24707" lon="6.5559">
        <ele>24.124849</ele>
        <time>2011-10-16T10:56:03Z</time>
      </trkpt>
      <trkpt lat="43.24712" lon="6.55574">
        <ele>22.759712</ele>
        <time>2011-10-16T10:56:06Z</time>
      </trkpt>
      <trkpt lat="43.24724" lon="6.55552">
        <ele>21.063049</ele>
        <time>2011-10-16T10:56:10Z</time>
      </trkpt>
      <trkpt lat="43.24748" lon="6.55524">
        <ele>19.606874</ele>
        <time>2011-10-16T10:56:14Z</time>
      </trkpt>
      <trkpt lat="43.2476" lon="6.55509">
        <ele>18.692093</ele>
        <time>2011-10-16T10:56:16Z</time>
      </trkpt>
      <trkpt lat="43.248" lon="6.55491">
        <ele>17.195063</ele>
        <time>2011-10-16T10:56:22Z</time>
      </trkpt>
      <trkpt lat="43.24811" lon="6.55475">
        <ele>16.619463</ele>
        <time>2011-10-16T10:56:24Z</time>
      </trkpt>
      <trkpt lat="43.2482" lon="6.55455">
        <ele>15.6633</ele>
        <time>2011-10-16T10:56:26Z</time>
      </trkpt>
      <trkpt lat="43.24827" lon="6.55435">
        <ele>14.539875</ele>
        <time>2011-10-16T10:56:28Z</time>
      </trkpt>
      <trkpt lat="43.24839" lon="6.554">
        <ele>12.529574</ele>
        <time>2011-10-16T10:56:34Z</time>
      </trkpt>
      <trkpt lat="43.24836" lon="6.55396">
        <ele>12.504337</ele>
        <time>2011-10-16T10:56:35Z</time>
      </trkpt>
      <trkpt lat="43.24781" lon="6.55296">
        <ele>10.721247</ele>
        <time>2011-10-16T10:56:49Z</time>
      </trkpt>
      <trkpt lat="43.24736" lon="6.55264">
        <ele>12.935812</ele>
        <time>2011-10-16T10:56:57Z</time>
      </trkpt>
      <trkpt lat="43.24731" lon="6.55259">
        <ele>13.238747</ele>
        <time>2011-10-16T10:56:58Z</time>
      </trkpt>
      <trkpt lat="43.24687" lon="6.55203">
        <ele>13.33985</ele>
        <time>2011-10-16T10:57:07Z</time>
      </trkpt>
      <trkpt lat="43.24664" lon="6.55183">
        <ele>14.045144</ele>
        <time>2011-10-16T10:57:11Z</time>
      </trkpt>
      <trkpt lat="43.24632" lon="6.5516">
        <ele>14.064125</ele>
        <time>2011-10-16T10:57:17Z</time>
      </trkpt>
      <trkpt lat="43.2459" lon="6.55131">
        <ele>14.45625</ele>
        <time>2011-10-16T10:57:25Z</time>
      </trkpt>
      <trkpt lat="43.24571" lon="6.55114">
        <ele>14.64</ele>
        <time>2011-10-16T10:57:29Z</time>
      </trkpt>
      <trkpt lat="43.24554" lon="6.55113">
        <ele>15.025</ele>
        <time>2011-10-16T10:57:33Z</time>
      </trkpt>
      <trkpt lat="43.24542" lon="6.55135">
        <ele>15.65</ele>
        <time>2011-10-16T10:57:38Z</time>
      </trkpt>
      <trkpt lat="43.24538" lon="6.55167">
        <ele>16.752834</ele>
        <time>2011-10-16T10:57:43Z</time>
      </trkpt>
      <trkpt lat="43.24538" lon="6.55228">
        <ele>19.374329</ele>
        <time>2011-10-16T10:57:53Z</time>
      </trkpt>
      <trkpt lat="43.24543" lon="6.55248">
        <ele>20.494595</ele>
        <time>2011-10-16T10:58:00Z</time>
      </trkpt>
      <trkpt lat="43.24545" lon="6.55253">
        <ele>20.816288</ele>
        <time>2011-10-16T10:58:03Z</time>
      </trkpt>
      <trkpt lat="43.24547" lon="6.55262">
        <ele>21.371738</ele>
        <time>2011-10-16T10:58:09Z</time>
      </trkpt>
      <trkpt lat="43.24551" lon="6.55271">
        <ele>22.090563</ele>
        <time>2011-10-16T10:58:15Z</time>
      </trkpt>
      <trkpt lat="43.24561" lon="6.55288">
        <ele>23.407835</ele>
        <time>2011-10-16T10:58:25Z</time>
      </trkpt>
      <trkpt lat="43.24555" lon="6.55312">
        <ele>24.981718</ele>
        <time>2011-10-16T10:58:35Z</time>
      </trkpt>
      <trkpt lat="43.24546" lon="6.55344">
        <ele>26.89175</ele>
        <time>2011-10-16T10:58:47Z</time>
      </trkpt>
      <trkpt lat="43.24538" lon="6.5538">
        <ele>28.88995</ele>
        <time>2011-10-16T10:59:00Z</time>
      </trkpt>
      <trkpt lat="43.24522" lon="6.55412">
        <ele>30.683825</ele>
        <time>2011-10-16T10:59:12Z</time>
      </trkpt>
      <trkpt lat="43.24496" lon="6.55442">
        <ele>33.346645</ele>
        <time>2011-10-16T10:59:24Z</time>
      </trkpt>
      <trkpt lat="43.24488" lon="6.55455">
        <ele>34.523376</ele>
        <time>2011-10-16T10:59:29Z</time>
      </trkpt>
      <trkpt lat="43.24473" lon="6.55483">
        <ele>37.404404</ele>
        <time>2011-10-16T10:59:41Z</time>
      </trkpt>
      <trkpt lat="43.24461" lon="6.55506">
        <ele>40.135933</ele>
        <time>2011-10-16T10:59:50Z</time>
      </trkpt>
      <trkpt lat="43.2445" lon="6.55537">
        <ele>43.156689</ele>
        <time>2011-10-16T11:00:02Z</time>
      </trkpt>
      <trkpt lat="43.24441" lon="6.55569">
        <ele>46.235527</ele>
        <time>2011-10-16T11:00:14Z</time>
      </trkpt>
      <trkpt lat="43.24434" lon="6.55587">
        <ele>47.459351</ele>
        <time>2011-10-16T11:00:21Z</time>
      </trkpt>
      <trkpt lat="43.24436" lon="6.55625">
        <ele>47.259998</ele>
        <time>2011-10-16T11:00:34Z</time>
      </trkpt>
      <trkpt lat="43.24433" lon="6.55654">
        <ele>47.188801</ele>
        <time>2011-10-16T11:00:45Z</time>
      </trkpt>
      <trkpt lat="43.24426" lon="6.55666">
        <ele>48.186455</ele>
        <time>2011-10-16T11:00:52Z</time>
      </trkpt>
      <trkpt lat="43.24406" lon="6.55697">
        <ele>51.289299</ele>
        <time>2011-10-16T11:01:05Z</time>
      </trkpt>
      <trkpt lat="43.24381" lon="6.55714">
        <ele>55.776756</ele>
        <time>2011-10-16T11:01:15Z</time>
      </trkpt>
      <trkpt lat="43.24354" lon="6.55736">
        <ele>60.274029</ele>
        <time>2011-10-16T11:01:25Z</time>
      </trkpt>
      <trkpt lat="43.24331" lon="6.55767">
        <ele>62.764675</ele>
        <time>2011-10-16T11:01:36Z</time>
      </trkpt>
      <trkpt lat="43.24305" lon="6.558">
        <ele>64.474998</ele>
        <time>2011-10-16T11:01:48Z</time>
      </trkpt>
      <trkpt lat="43.24284" lon="6.55836">
        <ele>66.193642</ele>
        <time>2011-10-16T11:01:57Z</time>
      </trkpt>
      <trkpt lat="43.24293" lon="6.55872">
        <ele>65.658615</ele>
        <time>2011-10-16T11:02:04Z</time>
      </trkpt>
      <trkpt lat="43.24297" lon="6.55883">
        <ele>66.154991</ele>
        <time>2011-10-16T11:02:06Z</time>
      </trkpt>
      <trkpt lat="43.24306" lon="6.55896">
        <ele>66.592262</ele>
        <time>2011-10-16T11:02:09Z</time>
      </trkpt>
      <trkpt lat="43.24314" lon="6.55911">
        <ele>67.223061</ele>
        <time>2011-10-16T11:02:12Z</time>
      </trkpt>
      <trkpt lat="43.24322" lon="6.55926">
        <ele>67.823753</ele>
        <time>2011-10-16T11:02:15Z</time>
      </trkpt>
      <trkpt lat="43.24333" lon="6.55946">
        <ele>68.033752</ele>
        <time>2011-10-16T11:02:19Z</time>
      </trkpt>
      <trkpt lat="43.24344" lon="6.55964">
        <ele>68.078751</ele>
        <time>2011-10-16T11:02:23Z</time>
      </trkpt>
      <trkpt lat="43.24355" lon="6.55995">
        <ele>68.684822</ele>
        <time>2011-10-16T11:02:29Z</time>
      </trkpt>
      <trkpt lat="43.24353" lon="6.56046">
        <ele>70.983597</ele>
        <time>2011-10-16T11:02:41Z</time>
      </trkpt>
      <trkpt lat="43.24345" lon="6.56087">
        <ele>71.8825</ele>
        <time>2011-10-16T11:02:51Z</time>
      </trkpt>
      <trkpt lat="43.2434" lon="6.56096">
        <ele>72.153748</ele>
        <time>2011-10-16T11:02:54Z</time>
      </trkpt>
      <trkpt lat="43.24324" lon="6.561">
        <ele>72.571251</ele>
        <time>2011-10-16T11:02:59Z</time>
      </trkpt>
      <trkpt lat="43.24306" lon="6.56098">
        <ele>73.011597</ele>
        <time>2011-10-16T11:03:04Z</time>
      </trkpt>
      <trkpt lat="43.24274" lon="6.56093">
        <ele>73.989128</ele>
        <time>2011-10-16T11:03:13Z</time>
      </trkpt>
      <trkpt lat="43.24266" lon="6.56115">
        <ele>73.699226</ele>
        <time>2011-10-16T11:03:18Z</time>
      </trkpt>
      <trkpt lat="43.24257" lon="6.56143">
        <ele>73.041565</ele>
        <time>2011-10-16T11:03:22Z</time>
      </trkpt>
      <trkpt lat="43.24254" lon="6.56159">
        <ele>72.503426</ele>
        <time>2011-10-16T11:03:24Z</time>
      </trkpt>
      <trkpt lat="43.24235" lon="6.5618">
        <ele>71.18399</ele>
        <time>2011-10-16T11:03:29Z</time>
      </trkpt>
      <trkpt lat="43.24218" lon="6.56223">
        <ele>67.156914</ele>
        <time>2011-10-16T11:03:36Z</time>
      </trkpt>
      <trkpt lat="43.24216" lon="6.5623">
        <ele>66.493752</ele>
        <time>2011-10-16T11:03:37Z</time>
      </trkpt>
      <trkpt lat="43.24183" lon="6.56288">
        <ele>61.197498</ele>
        <time>2011-10-16T11:03:46Z</time>
      </trkpt>
      <trkpt lat="43.24177" lon="6.56292">
        <ele>60.82</ele>
        <time>2011-10-16T11:03:47Z</time>
      </trkpt>
      <trkpt lat="43.24164" lon="6.56299">
        <ele>60.21357</ele>
        <time>2011-10-16T11:03:49Z</time>
      </trkpt>
      <trkpt lat="43.24144" lon="6.56312">
        <ele>58.686398</ele>
        <time>2011-10-16T11:03:52Z</time>
      </trkpt>
      <trkpt lat="43.24126" lon="6.56323">
        <ele>57.284187</ele>
        <time>2011-10-16T11:03:55Z</time>
      </trkpt>
      <trkpt lat="43.24117" lon="6.5635">
        <ele>53.952499</ele>
        <time>2011-10-16T11:03:59Z</time>
      </trkpt>
      <trkpt lat="43.24117" lon="6.56383">
        <ele>51.34375</ele>
        <time>2011-10-16T11:04:02Z</time>
      </trkpt>
      <trkpt lat="43.24105" lon="6.56431">
        <ele>47.787125</ele>
        <time>2011-10-16T11:04:09Z</time>
      </trkpt>
      <trkpt lat="43.24104" lon="6.56434">
        <ele>47.527119</ele>
        <time>2011-10-16T11:04:10Z</time>
      </trkpt>
      <trkpt lat="43.24083" lon="6.56459">
        <ele>44.827362</ele>
        <time>2011-10-16T11:04:18Z</time>
      </trkpt>
      <trkpt lat="43.24062" lon="6.56472">
        <ele>40.988468</ele>
        <time>2011-10-16T11:04:24Z</time>
      </trkpt>
      <trkpt lat="43.24066" lon="6.5649">
        <ele>39.306557</ele>
        <time>2011-10-16T11:04:28Z</time>
      </trkpt>
      <trkpt lat="43.24067" lon="6.56517">
        <ele>36.167076</ele>
        <time>2011-10-16T11:04:33Z</time>
      </trkpt>
      <trkpt lat="43.2406" lon="6.56551">
        <ele>32.05822</ele>
        <time>2011-10-16T11:04:39Z</time>
      </trkpt>
      <trkpt lat="43.24039" lon="6.56594">
        <ele>26.866924</ele>
        <time>2011-10-16T11:04:45Z</time>
      </trkpt>
      <trkpt lat="43.24038" lon="6.56617">
        <ele>25.8284</ele>
        <time>2011-10-16T11:04:47Z</time>
      </trkpt>
      <trkpt lat="43.24035" lon="6.56687">
        <ele>21.780001</ele>
        <time>2011-10-16T11:04:53Z</time>
      </trkpt>
      <trkpt lat="43.24057" lon="6.56717">
        <ele>20.947338</ele>
        <time>2011-10-16T11:04:59Z</time>
      </trkpt>
      <trkpt lat="43.24061" lon="6.56714">
        <ele>21.360649</ele>
        <time>2011-10-16T11:05:00Z</time>
      </trkpt>
      <trkpt lat="43.24104" lon="6.56686">
        <ele>24.646999</ele>
        <time>2011-10-16T11:05:12Z</time>
      </trkpt>
      <trkpt lat="43.24107" lon="6.56687">
        <ele>24.746193</ele>
        <time>2011-10-16T11:05:13Z</time>
      </trkpt>
      <trkpt lat="43.24135" lon="6.56705">
        <ele>24.098749</ele>
        <time>2011-10-16T11:05:20Z</time>
      </trkpt>
      <trkpt lat="43.24149" lon="6.56708">
        <ele>24.2125</ele>
        <time>2011-10-16T11:05:23Z</time>
      </trkpt>
      <trkpt lat="43.24165" lon="6.56698">
        <ele>25.13287</ele>
        <time>2011-10-16T11:05:29Z</time>
      </trkpt>
      <trkpt lat="43.24185" lon="6.567">
        <ele>25.007563</ele>
        <time>2011-10-16T11:05:34Z</time>
      </trkpt>
      <trkpt lat="43.242" lon="6.56708">
        <ele>24.472672</ele>
        <time>2011-10-16T11:05:37Z</time>
      </trkpt>
      <trkpt lat="43.24215" lon="6.5673">
        <ele>23.16</ele>
        <time>2011-10-16T11:05:42Z</time>
      </trkpt>
      <trkpt lat="43.24245" lon="6.56767">
        <ele>21.257807</ele>
        <time>2011-10-16T11:05:51Z</time>
      </trkpt>
      <trkpt lat="43.2426" lon="6.56786">
        <ele>20.074501</ele>
        <time>2011-10-16T11:05:55Z</time>
      </trkpt>
      <trkpt lat="43.24261" lon="6.56813">
        <ele>19.771721</ele>
        <time>2011-10-16T11:06:02Z</time>
      </trkpt>
      <trkpt lat="43.24251" lon="6.56824">
        <ele>19.930059</ele>
        <time>2011-10-16T11:06:05Z</time>
      </trkpt>
      <trkpt lat="43.2423" lon="6.5686">
        <ele>19.41111</ele>
        <time>2011-10-16T11:06:13Z</time>
      </trkpt>
      <trkpt lat="43.24232" lon="6.56866">
        <ele>19.230499</ele>
        <time>2011-10-16T11:06:14Z</time>
      </trkpt>
      <trkpt lat="43.24246" lon="6.56899">
        <ele>18.116434</ele>
        <time>2011-10-16T11:06:21Z</time>
      </trkpt>
      <trkpt lat="43.24249" lon="6.56903">
        <ele>18.010578</ele>
        <time>2011-10-16T11:06:22Z</time>
      </trkpt>
      <trkpt lat="43.24258" lon="6.5691">
        <ele>17.91375</ele>
        <time>2011-10-16T11:06:24Z</time>
      </trkpt>
      <trkpt lat="43.24276" lon="6.56918">
        <ele>17.79875</ele>
        <time>2011-10-16T11:06:27Z</time>
      </trkpt>
      <trkpt lat="43.24303" lon="6.5693">
        <ele>17.833738</ele>
        <time>2011-10-16T11:06:31Z</time>
      </trkpt>
      <trkpt lat="43.24324" lon="6.56939">
        <ele>17.997549</ele>
        <time>2011-10-16T11:06:34Z</time>
      </trkpt>
      <trkpt lat="43.24337" lon="6.56946">
        <ele>18.125322</ele>
        <time>2011-10-16T11:06:36Z</time>
      </trkpt>
      <trkpt lat="43.24354" lon="6.56952">
        <ele>18.23805</ele>
        <time>2011-10-16T11:06:39Z</time>
      </trkpt>
      <trkpt lat="43.24368" lon="6.56928">
        <ele>18.720787</ele>
        <time>2011-10-16T11:06:45Z</time>
      </trkpt>
      <trkpt lat="43.24355" lon="6.56868">
        <ele>19.342501</ele>
        <time>2011-10-16T11:06:53Z</time>
      </trkpt>
      <trkpt lat="43.24351" lon="6.56853">
        <ele>19.473749</ele>
        <time>2011-10-16T11:06:55Z</time>
      </trkpt>
      <trkpt lat="43.24347" lon="6.56836">
        <ele>19.728849</ele>
        <time>2011-10-16T11:06:58Z</time>
      </trkpt>
      <trkpt lat="43.24349" lon="6.56809">
        <ele>20.383894</ele>
        <time>2011-10-16T11:07:03Z</time>
      </trkpt>
      <trkpt lat="43.24355" lon="6.56766">
        <ele>21.8025</ele>
        <time>2011-10-16T11:07:12Z</time>
      </trkpt>
      <trkpt lat="43.24363" lon="6.56735">
        <ele>23.135</ele>
        <time>2011-10-16T11:07:19Z</time>
      </trkpt>
      <trkpt lat="43.2436" lon="6.56729">
        <ele>23.2125</ele>
        <time>2011-10-16T11:07:21Z</time>
      </trkpt>
      <trkpt lat="43.24345" lon="6.56713">
        <ele>23.3606</ele>
        <time>2011-10-16T11:07:26Z</time>
      </trkpt>
      <trkpt lat="43.24332" lon="6.56698">
        <ele>23.776075</ele>
        <time>2011-10-16T11:07:30Z</time>
      </trkpt>
      <trkpt lat="43.24303" lon="6.56671">
        <ele>24.796631</ele>
        <time>2011-10-16T11:07:39Z</time>
      </trkpt>
      <trkpt lat="43.243" lon="6.56668">
        <ele>24.873281</ele>
        <time>2011-10-16T11:07:40Z</time>
      </trkpt>
      <trkpt lat="43.24301" lon="6.56636">
        <ele>26.44875</ele>
        <time>2011-10-16T11:07:48Z</time>
      </trkpt>
      <trkpt lat="43.24301" lon="6.56632">
        <ele>26.653749</ele>
        <time>2011-10-16T11:07:49Z</time>
      </trkpt>
      <trkpt lat="43.243" lon="6.56624">
        <ele>27.035</ele>
        <time>2011-10-16T11:07:51Z</time>
      </trkpt>
      <trkpt lat="43.24295" lon="6.56588">
        <ele>28.799999</ele>
        <time>2011-10-16T11:07:59Z</time>
      </trkpt>
      <trkpt lat="43.24309" lon="6.56574">
        <ele>30.050001</ele>
        <time>2011-10-16T11:08:04Z</time>
      </trkpt>
      <trkpt lat="43.24321" lon="6.56576">
        <ele>30.254999</ele>
        <time>2011-10-16T11:08:08Z</time>
      </trkpt>
      <trkpt lat="43.2433" lon="6.56585">
        <ele>29.9275</ele>
        <time>2011-10-16T11:08:11Z</time>
      </trkpt>
      <trkpt lat="43.24341" lon="6.56577">
        <ele>30.751137</ele>
        <time>2011-10-16T11:08:15Z</time>
      </trkpt>
      <trkpt lat="43.2436" lon="6.56536">
        <ele>33.857498</ele>
        <time>2011-10-16T11:08:25Z</time>
      </trkpt>
      <trkpt lat="43.24359" lon="6.56519">
        <ele>34.924999</ele>
        <time>2011-10-16T11:08:29Z</time>
      </trkpt>
      <trkpt lat="43.24336" lon="6.5649">
        <ele>36.18</ele>
        <time>2011-10-16T11:08:40Z</time>
      </trkpt>
      <trkpt lat="43.24333" lon="6.56491">
        <ele>36.02</ele>
        <time>2011-10-16T11:08:50Z</time>
      </trkpt>
    </trkseg>
  </trk>
</gpx>